AFR874 LFPG-HTZA
Flight info
| Callsign | AFR874 |
|---|---|
| Flight time | 8h 28m |
| Altitude | 35000 |
| Route | LANV6H LANVI DEVDI RIPUS RESIA TNT ROTAR VAKSU DIMIS SALUN N705 BOPIX N710 TAKRI P751 LXR M999 JDW G650 KONET UM308 RANSO M308 GETOL T129 ALEMU ENORA UN301 MOV UL431 UVUKO |
| Aircraft | B772/H-SDE2E3FGHIJ5LORVWXY/LB1D1 |
Departure
| Time | 2026-04-30 04:04 |
|---|---|
| Airport | Charles de Gaulle International Airport (LFPG) |
Arrival
| Time | 2026-04-30 12:32 |
|---|---|
| Airport | Abeid Amani Karume International Airport (HTZA) |
| Time | Latitude | Longitude | Altitude | Speed | Heading |
|---|---|---|---|---|---|
| 2026-04-30 03:53 | 49.00081 | 2.58084 | 359 ft | 0 kts | 265° |
| 2026-04-30 03:55 | 49.00078 | 2.58046 | 360 ft | 6 kts | 265° |
| 2026-04-30 03:55 | 49.00074 | 2.57958 | 367 ft | 9 kts | 265° |
| 2026-04-30 03:55 | 49.00068 | 2.57859 | 361 ft | 9 kts | 265° |
| 2026-04-30 03:56 | 49.00058 | 2.57761 | 367 ft | 9 kts | 243° |
| 2026-04-30 03:56 | 48.99999 | 2.57727 | 363 ft | 9 kts | 208° |
| 2026-04-30 03:56 | 48.99977 | 2.57636 | 365 ft | 9 kts | 265° |
| 2026-04-30 03:56 | 48.99971 | 2.57536 | 358 ft | 9 kts | 265° |
| 2026-04-30 03:57 | 48.99965 | 2.57435 | 358 ft | 9 kts | 265° |
| 2026-04-30 03:57 | 48.99959 | 2.57323 | 367 ft | 14 kts | 266° |
| 2026-04-30 03:57 | 48.99952 | 2.57171 | 363 ft | 14 kts | 266° |
| 2026-04-30 03:57 | 48.99935 | 2.57033 | 362 ft | 11 kts | 236° |
| 2026-04-30 03:58 | 48.99900 | 2.57003 | 366 ft | 6 kts | 202° |
| 2026-04-30 03:58 | 48.99866 | 2.56972 | 365 ft | 6 kts | 230° |
| 2026-04-30 03:58 | 48.99850 | 2.56905 | 365 ft | 8 kts | 260° |
| 2026-04-30 03:58 | 48.99840 | 2.56780 | 358 ft | 13 kts | 264° |
| 2026-04-30 03:59 | 48.99832 | 2.56639 | 359 ft | 13 kts | 266° |
| 2026-04-30 03:59 | 48.99825 | 2.56498 | 362 ft | 13 kts | 266° |
| 2026-04-30 03:59 | 48.99818 | 2.56359 | 359 ft | 13 kts | 266° |
| 2026-04-30 03:59 | 48.99810 | 2.56218 | 364 ft | 13 kts | 264° |
| 2026-04-30 04:00 | 48.99801 | 2.56078 | 361 ft | 13 kts | 264° |
| 2026-04-30 04:00 | 48.99794 | 2.55937 | 363 ft | 13 kts | 264° |
| 2026-04-30 04:00 | 48.99763 | 2.55805 | 367 ft | 13 kts | 246° |
| 2026-04-30 04:00 | 48.99750 | 2.55665 | 358 ft | 13 kts | 265° |
| 2026-04-30 04:01 | 48.99742 | 2.55530 | 364 ft | 10 kts | 265° |
| 2026-04-30 04:01 | 48.99711 | 2.55444 | 359 ft | 10 kts | 195° |
| 2026-04-30 04:01 | 48.99647 | 2.55483 | 363 ft | 10 kts | 145° |
| 2026-04-30 04:01 | 48.99593 | 2.55551 | 363 ft | 10 kts | 124° |
| 2026-04-30 04:02 | 48.99589 | 2.55603 | 362 ft | 0 kts | 88° |
| 2026-04-30 04:03 | 48.99594 | 2.55737 | 357 ft | 30 kts | 86° |
| 2026-04-30 04:03 | 48.99630 | 2.56399 | 367 ft | 96 kts | 85° |
| 2026-04-30 04:03 | 48.99705 | 2.57724 | 365 ft | 152 kts | 84° |
| 2026-04-30 04:04 | 48.99818 | 2.59366 | 810 ft | 162 kts | 83° |
| 2026-04-30 04:04 | 48.99959 | 2.61102 | 1522 ft | 164 kts | 89° |
| 2026-04-30 04:04 | 49.00006 | 2.62756 | 2440 ft | 152 kts | 92° |
| 2026-04-30 04:04 | 49.00038 | 2.64451 | 2826 ft | 172 kts | 90° |
| 2026-04-30 04:05 | 49.00131 | 2.66402 | 3057 ft | 196 kts | 88° |
| 2026-04-30 04:05 | 49.00256 | 2.68572 | 3321 ft | 213 kts | 87° |
| 2026-04-30 04:05 | 49.00389 | 2.70896 | 3682 ft | 230 kts | 87° |
| 2026-04-30 04:05 | 49.00520 | 2.73359 | 4103 ft | 241 kts | 86° |
| 2026-04-30 04:06 | 49.00654 | 2.75925 | 4744 ft | 245 kts | 86° |
| 2026-04-30 04:06 | 49.00730 | 2.78534 | 5314 ft | 249 kts | 94° |
| 2026-04-30 04:06 | 49.00487 | 2.81179 | 5886 ft | 254 kts | 100° |
| 2026-04-30 04:06 | 49.00164 | 2.83826 | 6592 ft | 255 kts | 101° |
| 2026-04-30 04:07 | 48.99854 | 2.86488 | 7235 ft | 256 kts | 100° |
| 2026-04-30 04:07 | 48.99556 | 2.89185 | 7797 ft | 261 kts | 100° |
| 2026-04-30 04:07 | 48.99260 | 2.91934 | 8375 ft | 266 kts | 99° |
| 2026-04-30 04:08 | 48.98691 | 2.97503 | 9583 ft | 268 kts | 98° |
| 2026-04-30 04:08 | 48.98375 | 3.00298 | 10116 ft | 272 kts | 106° |
| 2026-04-30 04:08 | 48.97800 | 3.03057 | 10494 ft | 280 kts | 109° |
| 2026-04-30 04:08 | 48.97118 | 3.05944 | 10608 ft | 299 kts | 110° |
| 2026-04-30 04:09 | 48.96383 | 3.09003 | 10720 ft | 318 kts | 110° |
| 2026-04-30 04:09 | 48.95607 | 3.12258 | 10977 ft | 335 kts | 110° |
| 2026-04-30 04:09 | 48.94807 | 3.15662 | 11377 ft | 346 kts | 110° |
| 2026-04-30 04:09 | 48.93995 | 3.19150 | 12011 ft | 353 kts | 109° |
| 2026-04-30 04:10 | 48.93180 | 3.22679 | 12861 ft | 354 kts | 109° |
| 2026-04-30 04:10 | 48.92374 | 3.26189 | 13591 ft | 359 kts | 109° |
| 2026-04-30 04:10 | 48.91548 | 3.29792 | 14247 ft | 364 kts | 109° |
| 2026-04-30 04:10 | 48.90716 | 3.33426 | 14911 ft | 366 kts | 109° |
| 2026-04-30 04:11 | 48.89875 | 3.37101 | 15571 ft | 369 kts | 109° |
| 2026-04-30 04:11 | 48.89029 | 3.40798 | 16254 ft | 371 kts | 109° |
| 2026-04-30 04:11 | 48.88176 | 3.44519 | 16890 ft | 375 kts | 109° |
| 2026-04-30 04:11 | 48.87315 | 3.48268 | 17509 ft | 378 kts | 109° |
| 2026-04-30 04:12 | 48.86444 | 3.52054 | 18111 ft | 382 kts | 108° |
| 2026-04-30 04:12 | 48.85574 | 3.55828 | 18663 ft | 385 kts | 108° |
| 2026-04-30 04:12 | 48.84686 | 3.59677 | 19188 ft | 387 kts | 108° |
| 2026-04-30 04:12 | 48.83792 | 3.63541 | 19737 ft | 389 kts | 108° |
| 2026-04-30 04:13 | 48.82893 | 3.67422 | 20271 ft | 391 kts | 108° |
| 2026-04-30 04:13 | 48.81987 | 3.71322 | 20769 ft | 393 kts | 108° |
| 2026-04-30 04:13 | 48.81074 | 3.75250 | 21226 ft | 396 kts | 108° |
| 2026-04-30 04:13 | 48.80155 | 3.79199 | 21690 ft | 399 kts | 108° |
| 2026-04-30 04:14 | 48.79223 | 3.83190 | 22180 ft | 402 kts | 108° |
| 2026-04-30 04:14 | 48.78302 | 3.87129 | 22660 ft | 404 kts | 108° |
| 2026-04-30 04:14 | 48.77360 | 3.91150 | 23151 ft | 406 kts | 108° |
| 2026-04-30 04:14 | 48.76411 | 3.95191 | 23614 ft | 408 kts | 108° |
| 2026-04-30 04:15 | 48.75455 | 3.99256 | 24023 ft | 411 kts | 108° |
| 2026-04-30 04:15 | 48.74492 | 4.03345 | 24393 ft | 413 kts | 108° |
| 2026-04-30 04:15 | 48.73522 | 4.07455 | 24780 ft | 415 kts | 108° |
| 2026-04-30 04:15 | 48.72545 | 4.11586 | 25153 ft | 418 kts | 108° |
| 2026-04-30 04:16 | 48.71561 | 4.15740 | 25523 ft | 420 kts | 108° |
| 2026-04-30 04:16 | 48.70585 | 4.19850 | 25887 ft | 422 kts | 108° |
| 2026-04-30 04:16 | 48.69587 | 4.24045 | 26249 ft | 425 kts | 108° |
| 2026-04-30 04:16 | 48.68582 | 4.28263 | 26608 ft | 427 kts | 108° |
| 2026-04-30 04:17 | 48.67570 | 4.32502 | 26959 ft | 429 kts | 108° |
| 2026-04-30 04:17 | 48.66550 | 4.36763 | 27298 ft | 432 kts | 108° |
| 2026-04-30 04:17 | 48.65522 | 4.41054 | 27611 ft | 435 kts | 108° |
| 2026-04-30 04:17 | 48.64486 | 4.45368 | 27946 ft | 437 kts | 108° |
| 2026-04-30 04:18 | 48.63443 | 4.49700 | 28292 ft | 440 kts | 108° |
| 2026-04-30 04:18 | 48.62393 | 4.54055 | 28599 ft | 442 kts | 108° |
| 2026-04-30 04:18 | 48.61349 | 4.58375 | 28908 ft | 445 kts | 108° |
| 2026-04-30 04:18 | 48.60287 | 4.62765 | 29221 ft | 447 kts | 109° |
| 2026-04-30 04:19 | 48.59216 | 4.67181 | 29532 ft | 449 kts | 109° |
| 2026-04-30 04:19 | 48.58138 | 4.71614 | 29819 ft | 450 kts | 109° |
| 2026-04-30 04:19 | 48.57055 | 4.76064 | 30100 ft | 452 kts | 109° |
| 2026-04-30 04:19 | 48.55966 | 4.80525 | 30398 ft | 453 kts | 109° |
| 2026-04-30 04:20 | 48.54873 | 4.84994 | 30627 ft | 455 kts | 109° |
| 2026-04-30 04:20 | 48.52672 | 4.93970 | 30862 ft | 462 kts | 109° |
| 2026-04-30 04:20 | 48.51554 | 4.98515 | 31149 ft | 462 kts | 109° |
| 2026-04-30 04:21 | 48.50437 | 5.03046 | 31480 ft | 460 kts | 109° |
| 2026-04-30 04:21 | 48.49320 | 5.07564 | 31781 ft | 460 kts | 109° |
| 2026-04-30 04:21 | 48.48203 | 5.12079 | 32045 ft | 460 kts | 109° |
| 2026-04-30 04:21 | 48.47083 | 5.16595 | 32304 ft | 460 kts | 109° |
| 2026-04-30 04:22 | 48.45962 | 5.21106 | 32608 ft | 459 kts | 109° |
| 2026-04-30 04:22 | 48.44855 | 5.25549 | 32898 ft | 459 kts | 109° |
| 2026-04-30 04:22 | 48.43733 | 5.30049 | 33164 ft | 459 kts | 109° |
| 2026-04-30 04:22 | 48.42609 | 5.34548 | 33426 ft | 459 kts | 109° |
| 2026-04-30 04:23 | 48.41485 | 5.39035 | 33709 ft | 459 kts | 109° |
| 2026-04-30 04:23 | 48.40354 | 5.43540 | 33974 ft | 459 kts | 109° |
| 2026-04-30 04:23 | 48.39225 | 5.48031 | 34228 ft | 459 kts | 109° |
| 2026-04-30 04:23 | 48.38096 | 5.52511 | 34452 ft | 459 kts | 109° |
| 2026-04-30 04:24 | 48.36961 | 5.57007 | 34632 ft | 460 kts | 109° |
| 2026-04-30 04:24 | 48.35838 | 5.61447 | 34869 ft | 460 kts | 108° |
| 2026-04-30 04:24 | 48.34701 | 5.65934 | 35110 ft | 460 kts | 108° |
| 2026-04-30 04:25 | 48.32404 | 5.74978 | 35204 ft | 465 kts | 109° |
| 2026-04-30 04:25 | 48.29909 | 5.83942 | 35213 ft | 465 kts | 113° |
| 2026-04-30 04:26 | 48.27120 | 5.92643 | 35205 ft | 462 kts | 113° |
| 2026-04-30 04:26 | 48.24348 | 6.01278 | 35227 ft | 463 kts | 113° |
| 2026-04-30 04:27 | 48.21556 | 6.10001 | 35217 ft | 465 kts | 113° |
| 2026-04-30 04:27 | 48.18753 | 6.18749 | 35220 ft | 466 kts | 113° |
| 2026-04-30 04:28 | 48.15939 | 6.27501 | 35214 ft | 467 kts | 113° |
| 2026-04-30 04:28 | 48.13130 | 6.36208 | 35206 ft | 468 kts | 113° |
| 2026-04-30 04:29 | 48.10294 | 6.44968 | 35215 ft | 468 kts | 113° |
| 2026-04-30 04:29 | 48.07451 | 6.53719 | 35193 ft | 467 kts | 113° |
| 2026-04-30 04:30 | 48.04603 | 6.62450 | 35188 ft | 467 kts | 113° |
| 2026-04-30 04:30 | 48.01755 | 6.71156 | 35189 ft | 467 kts | 113° |
| 2026-04-30 04:31 | 47.98918 | 6.79802 | 35191 ft | 467 kts | 113° |
| 2026-04-30 04:31 | 47.96051 | 6.88510 | 35212 ft | 468 kts | 113° |
| 2026-04-30 04:32 | 47.93173 | 6.97216 | 35230 ft | 469 kts | 113° |
| 2026-04-30 04:32 | 47.90302 | 7.05874 | 35248 ft | 469 kts | 113° |
| 2026-04-30 04:33 | 47.87402 | 7.14592 | 35235 ft | 470 kts | 113° |
| 2026-04-30 04:33 | 47.84487 | 7.23324 | 35246 ft | 472 kts | 113° |
| 2026-04-30 04:34 | 47.81556 | 7.32073 | 35241 ft | 473 kts | 113° |
| 2026-04-30 04:34 | 47.78616 | 7.40822 | 35236 ft | 473 kts | 113° |
| 2026-04-30 04:35 | 47.75693 | 7.49497 | 35231 ft | 473 kts | 114° |
| 2026-04-30 04:35 | 47.72427 | 7.58013 | 35229 ft | 477 kts | 123° |
| 2026-04-30 04:36 | 47.68454 | 7.65908 | 35245 ft | 478 kts | 123° |
| 2026-04-30 04:36 | 47.64473 | 7.73799 | 35247 ft | 478 kts | 123° |
| 2026-04-30 04:37 | 47.60532 | 7.81671 | 35233 ft | 478 kts | 123° |
| 2026-04-30 04:37 | 47.56575 | 7.89588 | 35245 ft | 478 kts | 123° |
| 2026-04-30 04:38 | 47.52611 | 7.97498 | 35246 ft | 478 kts | 123° |
| 2026-04-30 04:38 | 47.48657 | 8.05365 | 35242 ft | 479 kts | 124° |
| 2026-04-30 04:39 | 47.44646 | 8.13317 | 35245 ft | 481 kts | 124° |
| 2026-04-30 04:39 | 47.40667 | 8.21185 | 35237 ft | 482 kts | 124° |
| 2026-04-30 04:40 | 47.36654 | 8.29097 | 35243 ft | 482 kts | 124° |
| 2026-04-30 04:40 | 47.32628 | 8.37013 | 35238 ft | 483 kts | 123° |
| 2026-04-30 04:41 | 47.28588 | 8.44935 | 35238 ft | 483 kts | 123° |
| 2026-04-30 04:41 | 47.24583 | 8.52796 | 35231 ft | 483 kts | 123° |
| 2026-04-30 04:42 | 47.20636 | 8.60767 | 35238 ft | 482 kts | 123° |
| 2026-04-30 04:42 | 47.16702 | 8.68758 | 35254 ft | 482 kts | 123° |
| 2026-04-30 04:43 | 47.12749 | 8.76740 | 35222 ft | 484 kts | 123° |
| 2026-04-30 04:43 | 47.08806 | 8.84657 | 35208 ft | 484 kts | 123° |
| 2026-04-30 04:44 | 47.04823 | 8.92627 | 35194 ft | 485 kts | 123° |
| 2026-04-30 04:44 | 47.00825 | 9.00600 | 35193 ft | 486 kts | 124° |
| 2026-04-30 04:45 | 46.96812 | 9.08586 | 35192 ft | 487 kts | 123° |
| 2026-04-30 04:45 | 46.92809 | 9.16527 | 35173 ft | 489 kts | 123° |
| 2026-04-30 04:46 | 46.88772 | 9.24513 | 35166 ft | 489 kts | 124° |
| 2026-04-30 04:46 | 46.84728 | 9.32486 | 35175 ft | 488 kts | 124° |
| 2026-04-30 04:47 | 46.80677 | 9.40455 | 35196 ft | 489 kts | 123° |
| 2026-04-30 04:47 | 46.76642 | 9.48373 | 35183 ft | 490 kts | 124° |
| 2026-04-30 04:48 | 46.72565 | 9.56345 | 35200 ft | 491 kts | 124° |
| 2026-04-30 04:48 | 46.68471 | 9.64328 | 35214 ft | 492 kts | 124° |
| 2026-04-30 04:49 | 46.64367 | 9.72308 | 35226 ft | 493 kts | 124° |
| 2026-04-30 04:49 | 46.60246 | 9.80298 | 35258 ft | 494 kts | 124° |
| 2026-04-30 04:50 | 46.56147 | 9.88223 | 35223 ft | 494 kts | 124° |
| 2026-04-30 04:50 | 46.52018 | 9.96190 | 35230 ft | 494 kts | 125° |
| 2026-04-30 04:51 | 46.47890 | 10.04168 | 35238 ft | 494 kts | 123° |
| 2026-04-30 04:51 | 46.44300 | 10.12635 | 35241 ft | 494 kts | 118° |
| 2026-04-30 04:52 | 46.40841 | 10.21180 | 35237 ft | 495 kts | 118° |
| 2026-04-30 04:52 | 46.37322 | 10.29770 | 35208 ft | 496 kts | 119° |
| 2026-04-30 04:53 | 46.33776 | 10.38346 | 35229 ft | 497 kts | 119° |
| 2026-04-30 04:53 | 46.30211 | 10.46931 | 35231 ft | 498 kts | 119° |
| 2026-04-30 04:54 | 46.26633 | 10.55522 | 35217 ft | 499 kts | 119° |
| 2026-04-30 04:54 | 46.23072 | 10.64050 | 35218 ft | 499 kts | 119° |
| 2026-04-30 04:55 | 46.19477 | 10.72635 | 35214 ft | 499 kts | 119° |
| 2026-04-30 04:55 | 46.15883 | 10.81188 | 35254 ft | 498 kts | 119° |
| 2026-04-30 04:56 | 46.12308 | 10.89674 | 35227 ft | 498 kts | 119° |
| 2026-04-30 04:56 | 46.08712 | 10.98182 | 35226 ft | 497 kts | 119° |
| 2026-04-30 04:57 | 46.05110 | 11.06681 | 35237 ft | 497 kts | 119° |
| 2026-04-30 04:57 | 46.01509 | 11.15162 | 35250 ft | 497 kts | 119° |
| 2026-04-30 04:58 | 45.98024 | 11.23829 | 35263 ft | 505 kts | 117° |
| 2026-04-30 04:58 | 45.94597 | 11.32603 | 35261 ft | 508 kts | 117° |
| 2026-04-30 04:59 | 45.91116 | 11.41441 | 35266 ft | 508 kts | 118° |
| 2026-04-30 04:59 | 45.87606 | 11.50255 | 35268 ft | 508 kts | 118° |
| 2026-04-30 05:00 | 45.84112 | 11.58978 | 35277 ft | 507 kts | 118° |
| 2026-04-30 05:00 | 45.80601 | 11.67719 | 35269 ft | 505 kts | 118° |
| 2026-04-30 05:01 | 45.77091 | 11.76432 | 35269 ft | 504 kts | 118° |
| 2026-04-30 05:01 | 45.73583 | 11.85117 | 35286 ft | 504 kts | 118° |
| 2026-04-30 05:02 | 45.70066 | 11.93794 | 35270 ft | 505 kts | 118° |
| 2026-04-30 05:02 | 45.66527 | 12.02499 | 35270 ft | 507 kts | 118° |
| 2026-04-30 05:03 | 45.62994 | 12.11163 | 35269 ft | 508 kts | 119° |
| 2026-04-30 05:03 | 45.59421 | 12.19897 | 35313 ft | 510 kts | 119° |
| 2026-04-30 05:04 | 45.55834 | 12.28637 | 35271 ft | 511 kts | 119° |
| 2026-04-30 05:04 | 45.52231 | 12.37392 | 35266 ft | 512 kts | 119° |
| 2026-04-30 05:05 | 45.48641 | 12.46084 | 35260 ft | 512 kts | 119° |
| 2026-04-30 05:05 | 45.45020 | 12.54827 | 35271 ft | 513 kts | 119° |
| 2026-04-30 05:06 | 45.40178 | 12.66473 | 35272 ft | 514 kts | 120° |
| 2026-04-30 05:06 | 45.35931 | 12.76651 | 35266 ft | 515 kts | 120° |
| 2026-04-30 05:07 | 45.32262 | 12.85414 | 35269 ft | 516 kts | 120° |
| 2026-04-30 05:07 | 45.28584 | 12.94174 | 35257 ft | 516 kts | 120° |
| 2026-04-30 05:08 | 45.25442 | 13.01371 | 35253 ft | 517 kts | 125° |
| 2026-04-30 05:08 | 45.20396 | 13.10800 | 35254 ft | 516 kts | 128° |
| 2026-04-30 05:09 | 45.16719 | 13.17555 | 35259 ft | 516 kts | 127° |
| 2026-04-30 05:09 | 45.12380 | 13.25576 | 35255 ft | 517 kts | 128° |
| 2026-04-30 05:10 | 45.08013 | 13.33678 | 35242 ft | 518 kts | 127° |
| 2026-04-30 05:10 | 45.03641 | 13.41781 | 35243 ft | 518 kts | 128° |
| 2026-04-30 05:11 | 44.99258 | 13.49879 | 35267 ft | 519 kts | 128° |
| 2026-04-30 05:11 | 44.94893 | 13.57918 | 35211 ft | 520 kts | 128° |
| 2026-04-30 05:12 | 44.90486 | 13.66009 | 35231 ft | 520 kts | 128° |
| 2026-04-30 05:12 | 44.86069 | 13.74092 | 35223 ft | 521 kts | 128° |
| 2026-04-30 05:13 | 44.81636 | 13.82186 | 35221 ft | 522 kts | 129° |
| 2026-04-30 05:13 | 44.77219 | 13.90228 | 35216 ft | 523 kts | 129° |
| 2026-04-30 05:14 | 44.72761 | 13.98320 | 35214 ft | 523 kts | 129° |
| 2026-04-30 05:14 | 44.68297 | 14.06402 | 35225 ft | 523 kts | 129° |
| 2026-04-30 05:15 | 44.63828 | 14.14468 | 35220 ft | 524 kts | 129° |
| 2026-04-30 05:15 | 44.59371 | 14.22490 | 35214 ft | 525 kts | 129° |
| 2026-04-30 05:16 | 44.54875 | 14.30561 | 35213 ft | 525 kts | 129° |
| 2026-04-30 05:16 | 44.50370 | 14.38625 | 35205 ft | 525 kts | 129° |
| 2026-04-30 05:17 | 44.45126 | 14.47986 | 35171 ft | 526 kts | 130° |
| 2026-04-30 05:17 | 44.41332 | 14.54737 | 35200 ft | 527 kts | 130° |
| 2026-04-30 05:18 | 44.36820 | 14.62744 | 35200 ft | 529 kts | 130° |
| 2026-04-30 05:18 | 44.32253 | 14.70829 | 35197 ft | 531 kts | 130° |
| 2026-04-30 05:19 | 44.27670 | 14.78919 | 35175 ft | 532 kts | 131° |
| 2026-04-30 05:19 | 44.23076 | 14.87004 | 35195 ft | 532 kts | 131° |
| 2026-04-30 05:20 | 44.18506 | 14.95028 | 35181 ft | 532 kts | 131° |
| 2026-04-30 05:20 | 44.13894 | 15.03100 | 35174 ft | 533 kts | 131° |
| 2026-04-30 05:21 | 44.09275 | 15.11161 | 35169 ft | 533 kts | 131° |
| 2026-04-30 05:21 | 44.04640 | 15.19229 | 35166 ft | 534 kts | 131° |
| 2026-04-30 05:22 | 44.00027 | 15.27237 | 35169 ft | 534 kts | 131° |
| 2026-04-30 05:22 | 43.95376 | 15.35289 | 35145 ft | 534 kts | 132° |
| 2026-04-30 05:23 | 43.90724 | 15.43318 | 35150 ft | 534 kts | 132° |
| 2026-04-30 05:23 | 43.86065 | 15.51338 | 35162 ft | 534 kts | 132° |
| 2026-04-30 05:24 | 43.81422 | 15.59309 | 35144 ft | 535 kts | 132° |
| 2026-04-30 05:24 | 43.76744 | 15.67317 | 35138 ft | 535 kts | 132° |
| 2026-04-30 05:25 | 43.72067 | 15.75302 | 35141 ft | 535 kts | 132° |
| 2026-04-30 05:25 | 43.67380 | 15.83283 | 35129 ft | 535 kts | 132° |
| 2026-04-30 05:26 | 43.62719 | 15.91197 | 35132 ft | 535 kts | 133° |
| 2026-04-30 05:26 | 43.58020 | 15.99152 | 35131 ft | 535 kts | 133° |
| 2026-04-30 05:27 | 43.53316 | 16.07096 | 35136 ft | 535 kts | 133° |
| 2026-04-30 05:27 | 43.48599 | 16.15041 | 35131 ft | 536 kts | 133° |
| 2026-04-30 05:28 | 43.43907 | 16.22921 | 35103 ft | 535 kts | 133° |
| 2026-04-30 05:28 | 43.39187 | 16.30827 | 35124 ft | 535 kts | 133° |
| 2026-04-30 05:29 | 43.34463 | 16.38717 | 35127 ft | 534 kts | 133° |
| 2026-04-30 05:29 | 43.29733 | 16.46597 | 35129 ft | 535 kts | 133° |
| 2026-04-30 05:30 | 43.25023 | 16.54421 | 35117 ft | 535 kts | 133° |
| 2026-04-30 05:30 | 43.20280 | 16.62281 | 35116 ft | 535 kts | 133° |
| 2026-04-30 05:31 | 43.15527 | 16.70135 | 35107 ft | 535 kts | 133° |
| 2026-04-30 05:31 | 43.10772 | 16.77972 | 35111 ft | 535 kts | 133° |
| 2026-04-30 05:32 | 43.06046 | 16.85741 | 35116 ft | 535 kts | 133° |
| 2026-04-30 05:32 | 43.01283 | 16.93548 | 35102 ft | 535 kts | 133° |
| 2026-04-30 05:33 | 42.96523 | 17.01333 | 35105 ft | 534 kts | 133° |
| 2026-04-30 05:33 | 42.91751 | 17.09111 | 35083 ft | 534 kts | 133° |
| 2026-04-30 05:34 | 42.86979 | 17.16875 | 35098 ft | 534 kts | 133° |
| 2026-04-30 05:34 | 42.82236 | 17.24569 | 35090 ft | 533 kts | 133° |
| 2026-04-30 05:35 | 42.77464 | 17.32288 | 35088 ft | 533 kts | 133° |
| 2026-04-30 05:35 | 42.72684 | 17.40000 | 35100 ft | 533 kts | 133° |
| 2026-04-30 05:36 | 42.67897 | 17.47705 | 35086 ft | 534 kts | 133° |
| 2026-04-30 05:36 | 42.63129 | 17.55358 | 35077 ft | 534 kts | 133° |
| 2026-04-30 05:37 | 42.58330 | 17.63040 | 35065 ft | 534 kts | 133° |
| 2026-04-30 05:37 | 42.53520 | 17.70722 | 35070 ft | 533 kts | 133° |
| 2026-04-30 05:38 | 42.48716 | 17.78372 | 35066 ft | 533 kts | 133° |
| 2026-04-30 05:38 | 42.43934 | 17.85969 | 35064 ft | 533 kts | 133° |
| 2026-04-30 05:39 | 42.39115 | 17.93604 | 35050 ft | 533 kts | 133° |
| 2026-04-30 05:39 | 42.34300 | 18.01213 | 35073 ft | 532 kts | 133° |
| 2026-04-30 05:40 | 42.29490 | 18.08795 | 35054 ft | 532 kts | 133° |
| 2026-04-30 05:40 | 42.24705 | 18.16319 | 35050 ft | 531 kts | 133° |
| 2026-04-30 05:41 | 42.19886 | 18.23878 | 35054 ft | 531 kts | 133° |
| 2026-04-30 05:41 | 42.15063 | 18.31424 | 35048 ft | 531 kts | 133° |
| 2026-04-30 05:42 | 42.10243 | 18.38945 | 35046 ft | 529 kts | 133° |
| 2026-04-30 05:42 | 42.05438 | 18.46428 | 35050 ft | 528 kts | 133° |
| 2026-04-30 05:43 | 42.00543 | 18.53688 | 35038 ft | 525 kts | 139° |
| 2026-04-30 05:43 | 41.94971 | 18.59953 | 35047 ft | 521 kts | 144° |
| 2026-04-30 05:44 | 41.89326 | 18.66066 | 35051 ft | 521 kts | 144° |
| 2026-04-30 05:44 | 41.83717 | 18.72197 | 35046 ft | 520 kts | 144° |
| 2026-04-30 05:45 | 41.78159 | 18.78304 | 35055 ft | 520 kts | 144° |
| 2026-04-30 05:45 | 41.72569 | 18.84439 | 35052 ft | 519 kts | 144° |
| 2026-04-30 05:46 | 41.66975 | 18.90561 | 35049 ft | 519 kts | 144° |
| 2026-04-30 05:46 | 41.61392 | 18.96654 | 35047 ft | 518 kts | 144° |
| 2026-04-30 05:47 | 41.55856 | 19.02681 | 35050 ft | 516 kts | 144° |
| 2026-04-30 05:47 | 41.50295 | 19.08721 | 35053 ft | 515 kts | 144° |
| 2026-04-30 05:48 | 41.44746 | 19.14735 | 35051 ft | 513 kts | 144° |
| 2026-04-30 05:48 | 41.39205 | 19.20725 | 35049 ft | 512 kts | 144° |
| 2026-04-30 05:49 | 41.33720 | 19.26643 | 35043 ft | 511 kts | 144° |
| 2026-04-30 05:49 | 41.28197 | 19.32588 | 35047 ft | 510 kts | 144° |
| 2026-04-30 05:50 | 41.22692 | 19.38500 | 35048 ft | 509 kts | 144° |
| 2026-04-30 05:50 | 41.17181 | 19.44406 | 35047 ft | 509 kts | 144° |
| 2026-04-30 05:51 | 41.11708 | 19.50256 | 35051 ft | 509 kts | 144° |
| 2026-04-30 05:51 | 41.06185 | 19.56148 | 35033 ft | 510 kts | 144° |
| 2026-04-30 05:52 | 41.00655 | 19.62035 | 35045 ft | 510 kts | 144° |
| 2026-04-30 05:52 | 40.95121 | 19.67912 | 35041 ft | 510 kts | 144° |
| 2026-04-30 05:53 | 40.89622 | 19.73740 | 35040 ft | 511 kts | 144° |
| 2026-04-30 05:53 | 40.84080 | 19.79602 | 35033 ft | 510 kts | 144° |
| 2026-04-30 05:54 | 40.78542 | 19.85445 | 35038 ft | 509 kts | 144° |
| 2026-04-30 05:54 | 40.73011 | 19.91268 | 35036 ft | 508 kts | 144° |
| 2026-04-30 05:55 | 40.67485 | 19.97074 | 35043 ft | 508 kts | 144° |
| 2026-04-30 05:55 | 40.61996 | 20.02827 | 35030 ft | 507 kts | 144° |
| 2026-04-30 05:56 | 40.56480 | 20.08597 | 35052 ft | 507 kts | 144° |
| 2026-04-30 05:56 | 40.50955 | 20.14364 | 35054 ft | 507 kts | 144° |
| 2026-04-30 05:57 | 40.45459 | 20.20087 | 35057 ft | 508 kts | 144° |
| 2026-04-30 05:57 | 40.39918 | 20.25846 | 35061 ft | 508 kts | 144° |
| 2026-04-30 05:58 | 40.34369 | 20.31599 | 35052 ft | 508 kts | 144° |
| 2026-04-30 05:58 | 40.28822 | 20.37340 | 35063 ft | 509 kts | 144° |
| 2026-04-30 05:59 | 40.23255 | 20.43088 | 35060 ft | 510 kts | 145° |
| 2026-04-30 05:59 | 40.17720 | 20.48793 | 35062 ft | 510 kts | 145° |
| 2026-04-30 06:00 | 40.12142 | 20.54531 | 35049 ft | 510 kts | 145° |
| 2026-04-30 06:00 | 40.06474 | 20.60079 | 35068 ft | 507 kts | 151° |
| 2026-04-30 06:01 | 40.00329 | 20.64460 | 35082 ft | 503 kts | 156° |
| 2026-04-30 06:01 | 39.94166 | 20.68647 | 35092 ft | 503 kts | 156° |
| 2026-04-30 06:02 | 39.87965 | 20.72905 | 35091 ft | 504 kts | 156° |
| 2026-04-30 06:02 | 39.81776 | 20.77180 | 35093 ft | 503 kts | 156° |
| 2026-04-30 06:03 | 39.75592 | 20.81451 | 35110 ft | 503 kts | 156° |
| 2026-04-30 06:03 | 39.69448 | 20.85684 | 35105 ft | 503 kts | 156° |
| 2026-04-30 06:04 | 39.63257 | 20.89936 | 35081 ft | 503 kts | 156° |
| 2026-04-30 06:05 | 39.53989 | 20.96288 | 35097 ft | 502 kts | 156° |
| 2026-04-30 06:05 | 39.47808 | 21.00513 | 35096 ft | 502 kts | 156° |
| 2026-04-30 06:06 | 39.41618 | 21.04735 | 35085 ft | 503 kts | 156° |
| 2026-04-30 06:06 | 39.35468 | 21.08921 | 35072 ft | 502 kts | 156° |
| 2026-04-30 06:07 | 39.29290 | 21.13119 | 35078 ft | 501 kts | 156° |
| 2026-04-30 06:07 | 39.23126 | 21.17298 | 35084 ft | 501 kts | 156° |
| 2026-04-30 06:08 | 39.16957 | 21.21471 | 35095 ft | 500 kts | 156° |
| 2026-04-30 06:08 | 39.10830 | 21.25611 | 35101 ft | 501 kts | 156° |
| 2026-04-30 06:09 | 39.04654 | 21.29774 | 35107 ft | 501 kts | 156° |
| 2026-04-30 06:09 | 38.98471 | 21.33933 | 35103 ft | 502 kts | 156° |
| 2026-04-30 06:10 | 38.92271 | 21.38094 | 35101 ft | 503 kts | 156° |
| 2026-04-30 06:10 | 38.86065 | 21.42253 | 35089 ft | 503 kts | 156° |
| 2026-04-30 06:11 | 38.79895 | 21.46379 | 35089 ft | 503 kts | 156° |
| 2026-04-30 06:11 | 38.73688 | 21.50521 | 35093 ft | 504 kts | 156° |
| 2026-04-30 06:12 | 38.67464 | 21.54666 | 35096 ft | 503 kts | 156° |
| 2026-04-30 06:12 | 38.61297 | 21.58767 | 35089 ft | 503 kts | 156° |
| 2026-04-30 06:13 | 38.55084 | 21.62888 | 35085 ft | 503 kts | 156° |
| 2026-04-30 06:13 | 38.48874 | 21.67000 | 35087 ft | 502 kts | 156° |
| 2026-04-30 06:14 | 38.42669 | 21.71101 | 35090 ft | 502 kts | 156° |
| 2026-04-30 06:14 | 38.36465 | 21.75193 | 35073 ft | 502 kts | 156° |
| 2026-04-30 06:15 | 38.30312 | 21.79244 | 35086 ft | 502 kts | 156° |
| 2026-04-30 06:15 | 38.24107 | 21.83320 | 35093 ft | 502 kts | 156° |
| 2026-04-30 06:16 | 38.17890 | 21.87397 | 35086 ft | 503 kts | 156° |
| 2026-04-30 06:16 | 38.11669 | 21.91467 | 35071 ft | 503 kts | 156° |
| 2026-04-30 06:17 | 38.05495 | 21.95502 | 35088 ft | 502 kts | 156° |
| 2026-04-30 06:17 | 37.99283 | 21.99551 | 35097 ft | 503 kts | 156° |
| 2026-04-30 06:18 | 37.93051 | 22.03606 | 35091 ft | 504 kts | 156° |
| 2026-04-30 06:18 | 37.86807 | 22.07662 | 35080 ft | 505 kts | 156° |
| 2026-04-30 06:19 | 37.80597 | 22.11687 | 35091 ft | 505 kts | 156° |
| 2026-04-30 06:19 | 37.74333 | 22.15739 | 35084 ft | 506 kts | 156° |
| 2026-04-30 06:20 | 37.68064 | 22.19788 | 35097 ft | 506 kts | 156° |
| 2026-04-30 06:20 | 37.61796 | 22.23828 | 35084 ft | 507 kts | 156° |
| 2026-04-30 06:21 | 37.55514 | 22.27870 | 35092 ft | 507 kts | 157° |
| 2026-04-30 06:21 | 37.49270 | 22.31879 | 35092 ft | 507 kts | 157° |
| 2026-04-30 06:22 | 37.42981 | 22.35909 | 35088 ft | 507 kts | 157° |
| 2026-04-30 06:22 | 37.36703 | 22.39925 | 35075 ft | 507 kts | 157° |
| 2026-04-30 06:23 | 37.30417 | 22.43938 | 35095 ft | 507 kts | 157° |
| 2026-04-30 06:23 | 37.24122 | 22.47950 | 35096 ft | 508 kts | 157° |
| 2026-04-30 06:24 | 37.17857 | 22.51936 | 35071 ft | 509 kts | 157° |
| 2026-04-30 06:24 | 37.11547 | 22.55941 | 35067 ft | 509 kts | 157° |
| 2026-04-30 06:25 | 37.05215 | 22.59951 | 35081 ft | 510 kts | 157° |
| 2026-04-30 06:25 | 36.98868 | 22.63966 | 35073 ft | 511 kts | 157° |
| 2026-04-30 06:26 | 36.92555 | 22.67952 | 35077 ft | 512 kts | 157° |
| 2026-04-30 06:26 | 36.86194 | 22.71960 | 35059 ft | 512 kts | 157° |
| 2026-04-30 06:27 | 36.79837 | 22.75958 | 35064 ft | 512 kts | 157° |
| 2026-04-30 06:27 | 36.73476 | 22.79952 | 35071 ft | 512 kts | 157° |
| 2026-04-30 06:28 | 36.67113 | 22.83938 | 35070 ft | 512 kts | 157° |
| 2026-04-30 06:28 | 36.60791 | 22.87892 | 35052 ft | 512 kts | 157° |
| 2026-04-30 06:29 | 36.54426 | 22.91866 | 35070 ft | 512 kts | 157° |
| 2026-04-30 06:29 | 36.48059 | 22.95833 | 35075 ft | 512 kts | 157° |
| 2026-04-30 06:30 | 36.41693 | 22.99792 | 35070 ft | 512 kts | 157° |
| 2026-04-30 06:30 | 36.35361 | 23.03723 | 35066 ft | 512 kts | 157° |
| 2026-04-30 06:31 | 36.28988 | 23.07672 | 35064 ft | 512 kts | 158° |
| 2026-04-30 06:31 | 36.22619 | 23.11612 | 35069 ft | 512 kts | 157° |
| 2026-04-30 06:32 | 36.16245 | 23.15547 | 35067 ft | 512 kts | 157° |
| 2026-04-30 06:32 | 36.09907 | 23.19453 | 35071 ft | 512 kts | 158° |
| 2026-04-30 06:33 | 36.03527 | 23.23377 | 35075 ft | 513 kts | 158° |
| 2026-04-30 06:33 | 35.97133 | 23.27303 | 35070 ft | 513 kts | 158° |
| 2026-04-30 06:34 | 35.90733 | 23.31225 | 35066 ft | 514 kts | 158° |
| 2026-04-30 06:34 | 35.84331 | 23.35142 | 35072 ft | 514 kts | 158° |
| 2026-04-30 06:35 | 35.77981 | 23.39021 | 35062 ft | 513 kts | 158° |
| 2026-04-30 06:35 | 35.71584 | 23.42921 | 35072 ft | 512 kts | 158° |
| 2026-04-30 06:36 | 35.65200 | 23.46805 | 35067 ft | 512 kts | 158° |
| 2026-04-30 06:36 | 35.58804 | 23.50690 | 35078 ft | 513 kts | 158° |
| 2026-04-30 06:37 | 35.52445 | 23.54545 | 35069 ft | 513 kts | 158° |
| 2026-04-30 06:37 | 35.46040 | 23.58422 | 35078 ft | 513 kts | 158° |
| 2026-04-30 06:38 | 35.39636 | 23.62291 | 35072 ft | 514 kts | 158° |
| 2026-04-30 06:38 | 35.33220 | 23.66160 | 35075 ft | 514 kts | 158° |
| 2026-04-30 06:39 | 35.26848 | 23.69995 | 35066 ft | 513 kts | 158° |
| 2026-04-30 06:39 | 35.20447 | 23.73844 | 35073 ft | 512 kts | 158° |
| 2026-04-30 06:40 | 35.14058 | 23.77677 | 35072 ft | 511 kts | 158° |
| 2026-04-30 06:40 | 35.07681 | 23.81496 | 35074 ft | 511 kts | 158° |
| 2026-04-30 06:41 | 35.01342 | 23.85285 | 35075 ft | 510 kts | 158° |
| 2026-04-30 06:41 | 34.94964 | 23.89091 | 35078 ft | 510 kts | 158° |
| 2026-04-30 06:42 | 34.88586 | 23.92890 | 35074 ft | 510 kts | 158° |
| 2026-04-30 06:42 | 34.82214 | 23.96680 | 35074 ft | 510 kts | 158° |
| 2026-04-30 06:43 | 34.75824 | 24.00473 | 35063 ft | 510 kts | 158° |
| 2026-04-30 06:43 | 34.69446 | 24.04253 | 35075 ft | 510 kts | 158° |
| 2026-04-30 06:44 | 34.63099 | 24.08008 | 35075 ft | 511 kts | 158° |
| 2026-04-30 06:44 | 34.56698 | 24.11788 | 35078 ft | 512 kts | 158° |
| 2026-04-30 06:45 | 34.50286 | 24.15569 | 35061 ft | 513 kts | 158° |
| 2026-04-30 06:45 | 34.43869 | 24.19346 | 35071 ft | 513 kts | 158° |
| 2026-04-30 06:46 | 34.37486 | 24.23097 | 35076 ft | 513 kts | 158° |
| 2026-04-30 06:46 | 34.31054 | 24.26870 | 35080 ft | 514 kts | 158° |
| 2026-04-30 06:47 | 34.24619 | 24.30638 | 35082 ft | 514 kts | 158° |
| 2026-04-30 06:47 | 34.18182 | 24.34402 | 35082 ft | 514 kts | 159° |
| 2026-04-30 06:48 | 34.11788 | 24.38134 | 35083 ft | 515 kts | 159° |
| 2026-04-30 06:48 | 34.05333 | 24.41896 | 35086 ft | 515 kts | 159° |
| 2026-04-30 06:49 | 33.99088 | 24.46220 | 35079 ft | 521 kts | 148° |
| 2026-04-30 06:49 | 33.93495 | 24.51828 | 35062 ft | 525 kts | 141° |
| 2026-04-30 06:50 | 33.88125 | 24.57709 | 35078 ft | 526 kts | 141° |
| 2026-04-30 06:50 | 33.82694 | 24.63600 | 35086 ft | 527 kts | 141° |
| 2026-04-30 06:51 | 33.77223 | 24.69474 | 35083 ft | 528 kts | 141° |
| 2026-04-30 06:51 | 33.71733 | 24.75341 | 35085 ft | 528 kts | 141° |
| 2026-04-30 06:52 | 33.66272 | 24.81167 | 35082 ft | 529 kts | 141° |
| 2026-04-30 06:52 | 33.60770 | 24.87031 | 35068 ft | 529 kts | 142° |
| 2026-04-30 06:53 | 33.55259 | 24.92895 | 35084 ft | 530 kts | 142° |
| 2026-04-30 06:53 | 33.49743 | 24.98754 | 35089 ft | 531 kts | 142° |
| 2026-04-30 06:54 | 33.44248 | 25.04581 | 35091 ft | 531 kts | 142° |
| 2026-04-30 06:54 | 33.38716 | 25.10436 | 35080 ft | 530 kts | 142° |
| 2026-04-30 06:55 | 33.33188 | 25.16277 | 35086 ft | 530 kts | 142° |
| 2026-04-30 06:55 | 33.27669 | 25.22098 | 35084 ft | 529 kts | 142° |
| 2026-04-30 06:56 | 33.22150 | 25.27908 | 35088 ft | 528 kts | 142° |
| 2026-04-30 06:56 | 33.16672 | 25.33666 | 35096 ft | 528 kts | 142° |
| 2026-04-30 06:57 | 33.11164 | 25.39444 | 35087 ft | 527 kts | 142° |
| 2026-04-30 06:57 | 33.05667 | 25.45202 | 35084 ft | 525 kts | 142° |
| 2026-04-30 06:58 | 33.00179 | 25.50940 | 35065 ft | 524 kts | 142° |
| 2026-04-30 06:58 | 32.94695 | 25.56663 | 35090 ft | 525 kts | 142° |
| 2026-04-30 06:59 | 32.89219 | 25.62367 | 35090 ft | 528 kts | 142° |
| 2026-04-30 06:59 | 32.83682 | 25.68126 | 35093 ft | 529 kts | 142° |
| 2026-04-30 07:00 | 32.78130 | 25.73891 | 35087 ft | 530 kts | 142° |
| 2026-04-30 07:00 | 32.72568 | 25.79657 | 35094 ft | 531 kts | 142° |
| 2026-04-30 07:01 | 32.67039 | 25.85379 | 35083 ft | 531 kts | 142° |
| 2026-04-30 07:01 | 32.61472 | 25.91130 | 35092 ft | 531 kts | 142° |
| 2026-04-30 07:02 | 32.55889 | 25.96887 | 35093 ft | 532 kts | 142° |
| 2026-04-30 07:02 | 32.50303 | 26.02638 | 35092 ft | 532 kts | 142° |
| 2026-04-30 07:03 | 32.44753 | 26.08342 | 35087 ft | 531 kts | 142° |
| 2026-04-30 07:03 | 32.39174 | 26.14067 | 35090 ft | 531 kts | 142° |
| 2026-04-30 07:04 | 32.33586 | 26.19790 | 35102 ft | 531 kts | 143° |
| 2026-04-30 07:04 | 32.27988 | 26.25514 | 35097 ft | 533 kts | 143° |
| 2026-04-30 07:05 | 32.19607 | 26.34066 | 35091 ft | 533 kts | 143° |
| 2026-04-30 07:05 | 32.13986 | 26.39789 | 35092 ft | 534 kts | 143° |
| 2026-04-30 07:06 | 32.08360 | 26.45508 | 35100 ft | 534 kts | 143° |
| 2026-04-30 07:06 | 32.02736 | 26.51215 | 35089 ft | 534 kts | 143° |
| 2026-04-30 07:07 | 31.97137 | 26.56887 | 35094 ft | 534 kts | 143° |
| 2026-04-30 07:07 | 31.91497 | 26.62591 | 35095 ft | 534 kts | 143° |
| 2026-04-30 07:08 | 31.85854 | 26.68289 | 35099 ft | 534 kts | 143° |
| 2026-04-30 07:08 | 31.80214 | 26.73974 | 35101 ft | 534 kts | 143° |
| 2026-04-30 07:09 | 31.74606 | 26.79618 | 35070 ft | 534 kts | 143° |
| 2026-04-30 07:09 | 31.68965 | 26.85287 | 35096 ft | 533 kts | 143° |
| 2026-04-30 07:10 | 31.63325 | 26.90943 | 35106 ft | 533 kts | 143° |
| 2026-04-30 07:10 | 31.57685 | 26.96591 | 35104 ft | 533 kts | 143° |
| 2026-04-30 07:11 | 31.52092 | 27.02183 | 35106 ft | 532 kts | 143° |
| 2026-04-30 07:11 | 31.46450 | 27.07815 | 35105 ft | 532 kts | 143° |
| 2026-04-30 07:12 | 31.40823 | 27.13424 | 35092 ft | 531 kts | 143° |
| 2026-04-30 07:12 | 31.35189 | 27.19017 | 35098 ft | 530 kts | 145° |
| 2026-04-30 07:13 | 31.29173 | 27.23783 | 35115 ft | 522 kts | 156° |
| 2026-04-30 07:13 | 31.22643 | 27.27369 | 35100 ft | 518 kts | 161° |
| 2026-04-30 07:14 | 31.16077 | 27.30856 | 35101 ft | 519 kts | 161° |
| 2026-04-30 07:14 | 31.09532 | 27.34401 | 35099 ft | 519 kts | 161° |
| 2026-04-30 07:15 | 31.03027 | 27.37936 | 35107 ft | 519 kts | 161° |
| 2026-04-30 07:15 | 30.96476 | 27.41493 | 35110 ft | 520 kts | 159° |
| 2026-04-30 07:16 | 30.90231 | 27.45875 | 35110 ft | 529 kts | 147° |
| 2026-04-30 07:16 | 30.84485 | 27.51266 | 35082 ft | 531 kts | 145° |
| 2026-04-30 07:17 | 30.78755 | 27.56672 | 35104 ft | 530 kts | 146° |
| 2026-04-30 07:18 | 30.70159 | 27.64654 | 35105 ft | 530 kts | 146° |
| 2026-04-30 07:18 | 30.64383 | 27.69981 | 35104 ft | 530 kts | 146° |
| 2026-04-30 07:19 | 30.58603 | 27.75305 | 35101 ft | 530 kts | 146° |
| 2026-04-30 07:19 | 30.52860 | 27.80591 | 35101 ft | 530 kts | 146° |
| 2026-04-30 07:20 | 30.47083 | 27.85902 | 35091 ft | 531 kts | 146° |
| 2026-04-30 07:20 | 30.41292 | 27.91216 | 35098 ft | 531 kts | 146° |
| 2026-04-30 07:21 | 30.35490 | 27.96530 | 35104 ft | 531 kts | 146° |
| 2026-04-30 07:21 | 30.29732 | 28.01799 | 35098 ft | 532 kts | 146° |
| 2026-04-30 07:22 | 30.21009 | 28.09764 | 35100 ft | 533 kts | 146° |
| 2026-04-30 07:22 | 30.15188 | 28.15070 | 35098 ft | 533 kts | 146° |
| 2026-04-30 07:23 | 30.09403 | 28.20333 | 35094 ft | 533 kts | 146° |
| 2026-04-30 07:23 | 30.03581 | 28.25624 | 35093 ft | 532 kts | 147° |
| 2026-04-30 07:24 | 29.97761 | 28.30904 | 35094 ft | 532 kts | 147° |
| 2026-04-30 07:24 | 29.91951 | 28.36168 | 35096 ft | 531 kts | 147° |
| 2026-04-30 07:25 | 29.86326 | 28.41722 | 35086 ft | 535 kts | 138° |
| 2026-04-30 07:25 | 29.81563 | 28.48276 | 35100 ft | 539 kts | 129° |
| 2026-04-30 07:26 | 29.77065 | 28.55175 | 35101 ft | 539 kts | 130° |
| 2026-04-30 07:26 | 29.72515 | 28.62020 | 35101 ft | 538 kts | 130° |
| 2026-04-30 07:27 | 29.67941 | 28.68825 | 35088 ft | 538 kts | 130° |
| 2026-04-30 07:27 | 29.63395 | 28.75589 | 35095 ft | 538 kts | 130° |
| 2026-04-30 07:28 | 29.58818 | 28.82391 | 35091 ft | 538 kts | 130° |
| 2026-04-30 07:28 | 29.54238 | 28.89189 | 35084 ft | 538 kts | 130° |
| 2026-04-30 07:29 | 29.49655 | 28.95982 | 35055 ft | 538 kts | 130° |
| 2026-04-30 07:29 | 29.45106 | 29.02714 | 35074 ft | 537 kts | 130° |
| 2026-04-30 07:30 | 29.40098 | 29.08997 | 35074 ft | 531 kts | 141° |
| 2026-04-30 07:30 | 29.37277 | 29.11691 | 35092 ft | 527 kts | 148° |
| 2026-04-30 07:31 | 29.31378 | 29.16669 | 35074 ft | 527 kts | 148° |
| 2026-04-30 07:31 | 29.25497 | 29.21689 | 35093 ft | 527 kts | 147° |
| 2026-04-30 07:32 | 29.19675 | 29.26720 | 35076 ft | 528 kts | 147° |
| 2026-04-30 07:32 | 29.13809 | 29.31786 | 35080 ft | 528 kts | 147° |
| 2026-04-30 07:33 | 29.07912 | 29.36793 | 35081 ft | 528 kts | 148° |
| 2026-04-30 07:33 | 29.01972 | 29.41709 | 35075 ft | 528 kts | 149° |
| 2026-04-30 07:34 | 28.96060 | 29.46591 | 35079 ft | 528 kts | 149° |
| 2026-04-30 07:34 | 28.90111 | 29.51516 | 35079 ft | 528 kts | 148° |
| 2026-04-30 07:35 | 28.84167 | 29.56442 | 35052 ft | 528 kts | 149° |
| 2026-04-30 07:35 | 28.78230 | 29.61356 | 35075 ft | 528 kts | 149° |
| 2026-04-30 07:36 | 28.72283 | 29.66270 | 35081 ft | 528 kts | 149° |
| 2026-04-30 07:36 | 28.66368 | 29.71149 | 35079 ft | 529 kts | 149° |
| 2026-04-30 07:37 | 28.60408 | 29.76058 | 35079 ft | 529 kts | 149° |
| 2026-04-30 07:37 | 28.54444 | 29.80965 | 35079 ft | 529 kts | 149° |
| 2026-04-30 07:38 | 28.48478 | 29.85866 | 35073 ft | 529 kts | 149° |
| 2026-04-30 07:38 | 28.42555 | 29.90723 | 35078 ft | 529 kts | 149° |
| 2026-04-30 07:39 | 28.36580 | 29.95617 | 35086 ft | 530 kts | 149° |
| 2026-04-30 07:39 | 28.30598 | 30.00509 | 35082 ft | 530 kts | 149° |
| 2026-04-30 07:40 | 28.24649 | 30.05368 | 35078 ft | 530 kts | 149° |
| 2026-04-30 07:40 | 28.18656 | 30.10255 | 35062 ft | 530 kts | 150° |
| 2026-04-30 07:41 | 28.12661 | 30.15138 | 35081 ft | 531 kts | 150° |
| 2026-04-30 07:41 | 28.06663 | 30.20017 | 35090 ft | 531 kts | 150° |
| 2026-04-30 07:42 | 28.00650 | 30.24900 | 35081 ft | 532 kts | 150° |
| 2026-04-30 07:42 | 27.94672 | 30.29749 | 35077 ft | 532 kts | 150° |
| 2026-04-30 07:43 | 27.88649 | 30.34627 | 35057 ft | 533 kts | 150° |
| 2026-04-30 07:43 | 27.82622 | 30.39502 | 35087 ft | 533 kts | 150° |
| 2026-04-30 07:44 | 27.76637 | 30.44335 | 35083 ft | 533 kts | 150° |
| 2026-04-30 07:44 | 27.70601 | 30.49203 | 35086 ft | 533 kts | 150° |
| 2026-04-30 07:45 | 27.64560 | 30.54069 | 35084 ft | 534 kts | 150° |
| 2026-04-30 07:45 | 27.58516 | 30.58930 | 35084 ft | 534 kts | 150° |
| 2026-04-30 07:46 | 27.52511 | 30.63754 | 35077 ft | 533 kts | 150° |
| 2026-04-30 07:46 | 27.46469 | 30.68599 | 35093 ft | 534 kts | 150° |
| 2026-04-30 07:47 | 27.40412 | 30.73451 | 35089 ft | 534 kts | 150° |
| 2026-04-30 07:47 | 27.34349 | 30.78302 | 35091 ft | 535 kts | 150° |
| 2026-04-30 07:48 | 27.28319 | 30.83119 | 35090 ft | 535 kts | 150° |
| 2026-04-30 07:48 | 27.22243 | 30.87966 | 35073 ft | 536 kts | 150° |
| 2026-04-30 07:49 | 27.16163 | 30.92811 | 35091 ft | 536 kts | 150° |
| 2026-04-30 07:49 | 27.10079 | 30.97653 | 35136 ft | 537 kts | 150° |
| 2026-04-30 07:50 | 27.04133 | 31.02665 | 35120 ft | 542 kts | 143° |
| 2026-04-30 07:50 | 26.98870 | 31.08785 | 35128 ft | 549 kts | 132° |
| 2026-04-30 07:51 | 26.94102 | 31.15477 | 35113 ft | 549 kts | 132° |
| 2026-04-30 07:51 | 26.89330 | 31.22153 | 35102 ft | 548 kts | 133° |
| 2026-04-30 07:52 | 26.84564 | 31.28735 | 35078 ft | 548 kts | 133° |
| 2026-04-30 07:52 | 26.79749 | 31.35337 | 35038 ft | 547 kts | 133° |
| 2026-04-30 07:53 | 26.74942 | 31.41917 | 35029 ft | 545 kts | 133° |
| 2026-04-30 07:53 | 26.70143 | 31.48482 | 35029 ft | 545 kts | 133° |
| 2026-04-30 07:54 | 26.65381 | 31.54990 | 35006 ft | 544 kts | 133° |
| 2026-04-30 07:54 | 26.60595 | 31.61521 | 35001 ft | 543 kts | 133° |
| 2026-04-30 07:55 | 26.55806 | 31.68047 | 34991 ft | 543 kts | 133° |
| 2026-04-30 07:55 | 26.51015 | 31.74566 | 34957 ft | 543 kts | 133° |
| 2026-04-30 07:56 | 26.46255 | 31.81032 | 34972 ft | 542 kts | 133° |
| 2026-04-30 07:56 | 26.41460 | 31.87537 | 34985 ft | 543 kts | 133° |
| 2026-04-30 07:57 | 26.36658 | 31.94043 | 34958 ft | 543 kts | 133° |
| 2026-04-30 07:57 | 26.31882 | 32.00503 | 34965 ft | 544 kts | 133° |
| 2026-04-30 07:58 | 26.27074 | 32.06999 | 34962 ft | 544 kts | 133° |
| 2026-04-30 07:58 | 26.22256 | 32.13498 | 34959 ft | 544 kts | 134° |
| 2026-04-30 07:59 | 26.17436 | 32.19990 | 34971 ft | 544 kts | 134° |
| 2026-04-30 07:59 | 26.12649 | 32.26433 | 34968 ft | 543 kts | 134° |
| 2026-04-30 08:00 | 26.05428 | 32.36127 | 34966 ft | 541 kts | 134° |
| 2026-04-30 08:00 | 26.00629 | 32.42561 | 34980 ft | 541 kts | 134° |
| 2026-04-30 08:01 | 25.95826 | 32.48989 | 34977 ft | 540 kts | 134° |
| 2026-04-30 08:01 | 25.91054 | 32.55366 | 34983 ft | 540 kts | 134° |
| 2026-04-30 08:02 | 25.83844 | 32.64994 | 34990 ft | 541 kts | 134° |
| 2026-04-30 08:03 | 25.74282 | 32.77843 | 34995 ft | 541 kts | 130° |
| 2026-04-30 08:04 | 25.70116 | 32.84753 | 34968 ft | 542 kts | 127° |
| 2026-04-30 08:04 | 25.66014 | 32.91760 | 34966 ft | 541 kts | 127° |
| 2026-04-30 08:05 | 25.61888 | 32.98725 | 34977 ft | 540 kts | 128° |
| 2026-04-30 08:05 | 25.57773 | 33.05608 | 34983 ft | 538 kts | 128° |
| 2026-04-30 08:06 | 25.53636 | 33.12505 | 34987 ft | 538 kts | 128° |
| 2026-04-30 08:06 | 25.49496 | 33.19402 | 34982 ft | 538 kts | 128° |
| 2026-04-30 08:07 | 25.45356 | 33.26296 | 34986 ft | 538 kts | 128° |
| 2026-04-30 08:07 | 25.41238 | 33.33142 | 34983 ft | 538 kts | 128° |
| 2026-04-30 08:08 | 25.37091 | 33.40028 | 34986 ft | 539 kts | 128° |
| 2026-04-30 08:08 | 25.32932 | 33.46926 | 34989 ft | 539 kts | 128° |
| 2026-04-30 08:09 | 25.28761 | 33.53825 | 34986 ft | 540 kts | 128° |
| 2026-04-30 08:09 | 25.24582 | 33.60722 | 34991 ft | 540 kts | 129° |
| 2026-04-30 08:10 | 25.20423 | 33.67575 | 34983 ft | 541 kts | 129° |
| 2026-04-30 08:10 | 25.16227 | 33.74481 | 34986 ft | 542 kts | 129° |
| 2026-04-30 08:11 | 25.12024 | 33.81392 | 34991 ft | 543 kts | 129° |
| 2026-04-30 08:11 | 25.08517 | 33.87152 | 34985 ft | 544 kts | 129° |
| 2026-04-30 08:12 | 25.03606 | 33.95205 | 34987 ft | 545 kts | 129° |
| 2026-04-30 08:12 | 24.99373 | 34.02137 | 34990 ft | 545 kts | 129° |
| 2026-04-30 08:13 | 24.95852 | 34.07894 | 34993 ft | 546 kts | 129° |
| 2026-04-30 08:13 | 24.91601 | 34.14834 | 34995 ft | 546 kts | 129° |
| 2026-04-30 08:14 | 24.86658 | 34.22893 | 34985 ft | 547 kts | 129° |
| 2026-04-30 08:14 | 24.83092 | 34.28697 | 34994 ft | 547 kts | 129° |
| 2026-04-30 08:15 | 24.78859 | 34.35581 | 34998 ft | 546 kts | 130° |
| 2026-04-30 08:15 | 24.74593 | 34.42506 | 35004 ft | 547 kts | 129° |
| 2026-04-30 08:16 | 24.70319 | 34.49433 | 34982 ft | 547 kts | 130° |
| 2026-04-30 08:16 | 24.66043 | 34.56357 | 34991 ft | 547 kts | 130° |
| 2026-04-30 08:17 | 24.61796 | 34.63221 | 35002 ft | 547 kts | 130° |
| 2026-04-30 08:17 | 24.57513 | 34.70135 | 35002 ft | 547 kts | 130° |
| 2026-04-30 08:18 | 24.53226 | 34.77047 | 34984 ft | 547 kts | 130° |
| 2026-04-30 08:18 | 24.48934 | 34.83955 | 34999 ft | 547 kts | 130° |
| 2026-04-30 08:19 | 24.44638 | 34.90861 | 35006 ft | 548 kts | 130° |
| 2026-04-30 08:19 | 24.40357 | 34.97741 | 34988 ft | 550 kts | 130° |
| 2026-04-30 08:20 | 24.36043 | 35.04646 | 34975 ft | 548 kts | 130° |
| 2026-04-30 08:20 | 24.31735 | 35.11540 | 34990 ft | 548 kts | 130° |
| 2026-04-30 08:21 | 24.27458 | 35.18377 | 34989 ft | 547 kts | 130° |
| 2026-04-30 08:21 | 24.23153 | 35.25251 | 34983 ft | 547 kts | 130° |
| 2026-04-30 08:22 | 24.18850 | 35.32110 | 34987 ft | 547 kts | 130° |
| 2026-04-30 08:22 | 24.14539 | 35.38971 | 34990 ft | 547 kts | 130° |
| 2026-04-30 08:23 | 24.10249 | 35.45790 | 34985 ft | 548 kts | 130° |
| 2026-04-30 08:23 | 24.05924 | 35.52657 | 34972 ft | 548 kts | 130° |
| 2026-04-30 08:24 | 24.01598 | 35.59517 | 34981 ft | 548 kts | 130° |
| 2026-04-30 08:24 | 23.97270 | 35.66371 | 34984 ft | 548 kts | 130° |
| 2026-04-30 08:25 | 23.92936 | 35.73220 | 34956 ft | 548 kts | 130° |
| 2026-04-30 08:25 | 23.88637 | 35.80008 | 34988 ft | 547 kts | 130° |
| 2026-04-30 08:26 | 23.84302 | 35.86845 | 34981 ft | 547 kts | 130° |
| 2026-04-30 08:26 | 23.79963 | 35.93678 | 34983 ft | 547 kts | 130° |
| 2026-04-30 08:27 | 23.75655 | 36.00458 | 34972 ft | 547 kts | 130° |
| 2026-04-30 08:27 | 23.71320 | 36.07269 | 34985 ft | 547 kts | 130° |
| 2026-04-30 08:28 | 23.66978 | 36.14082 | 34981 ft | 547 kts | 130° |
| 2026-04-30 08:28 | 23.62633 | 36.20889 | 34974 ft | 547 kts | 130° |
| 2026-04-30 08:29 | 23.58285 | 36.27692 | 34979 ft | 546 kts | 130° |
| 2026-04-30 08:29 | 23.53967 | 36.34440 | 34982 ft | 546 kts | 130° |
| 2026-04-30 08:30 | 23.49624 | 36.41218 | 34985 ft | 546 kts | 130° |
| 2026-04-30 08:30 | 23.45275 | 36.47995 | 34972 ft | 545 kts | 130° |
| 2026-04-30 08:31 | 23.40929 | 36.54760 | 34974 ft | 545 kts | 130° |
| 2026-04-30 08:31 | 23.36612 | 36.61470 | 34983 ft | 545 kts | 130° |
| 2026-04-30 08:32 | 23.32266 | 36.68215 | 34979 ft | 545 kts | 130° |
| 2026-04-30 08:32 | 23.27915 | 36.74962 | 34969 ft | 545 kts | 130° |
| 2026-04-30 08:33 | 23.23562 | 36.81701 | 34976 ft | 544 kts | 130° |
| 2026-04-30 08:33 | 23.19237 | 36.88388 | 34980 ft | 544 kts | 130° |
| 2026-04-30 08:34 | 23.14886 | 36.95107 | 34975 ft | 544 kts | 130° |
| 2026-04-30 08:34 | 23.10529 | 37.01827 | 34965 ft | 544 kts | 130° |
| 2026-04-30 08:35 | 23.06173 | 37.08538 | 34973 ft | 543 kts | 130° |
| 2026-04-30 08:35 | 23.01816 | 37.15241 | 34954 ft | 543 kts | 130° |
| 2026-04-30 08:36 | 22.97469 | 37.21870 | 34980 ft | 542 kts | 131° |
| 2026-04-30 08:36 | 22.93084 | 37.28528 | 34967 ft | 542 kts | 131° |
| 2026-04-30 08:37 | 22.88702 | 37.35181 | 34972 ft | 542 kts | 131° |
| 2026-04-30 08:37 | 22.84325 | 37.41824 | 34972 ft | 542 kts | 131° |
| 2026-04-30 08:38 | 22.79972 | 37.48423 | 34966 ft | 542 kts | 131° |
| 2026-04-30 08:38 | 22.75590 | 37.55060 | 34970 ft | 541 kts | 131° |
| 2026-04-30 08:39 | 22.71221 | 37.61702 | 34970 ft | 541 kts | 130° |
| 2026-04-30 08:39 | 22.66870 | 37.68343 | 34970 ft | 541 kts | 130° |
| 2026-04-30 08:40 | 22.62545 | 37.74944 | 34963 ft | 541 kts | 130° |
| 2026-04-30 08:40 | 22.58192 | 37.81580 | 34964 ft | 540 kts | 130° |
| 2026-04-30 08:41 | 22.53837 | 37.88207 | 34970 ft | 540 kts | 130° |
| 2026-04-30 08:41 | 22.49482 | 37.94828 | 34966 ft | 540 kts | 130° |
| 2026-04-30 08:42 | 22.45126 | 38.01441 | 34961 ft | 540 kts | 130° |
| 2026-04-30 08:42 | 22.40804 | 38.07995 | 34960 ft | 539 kts | 131° |
| 2026-04-30 08:43 | 22.36448 | 38.14592 | 34960 ft | 539 kts | 131° |
| 2026-04-30 08:43 | 22.32092 | 38.21183 | 34946 ft | 539 kts | 130° |
| 2026-04-30 08:44 | 22.27765 | 38.27718 | 34955 ft | 538 kts | 131° |
| 2026-04-30 08:44 | 22.23404 | 38.34282 | 34955 ft | 538 kts | 131° |
| 2026-04-30 08:45 | 22.19043 | 38.40838 | 34952 ft | 537 kts | 131° |
| 2026-04-30 08:45 | 22.14687 | 38.47381 | 34933 ft | 537 kts | 130° |
| 2026-04-30 08:46 | 22.10328 | 38.53924 | 34953 ft | 537 kts | 131° |
| 2026-04-30 08:46 | 22.05996 | 38.60417 | 34950 ft | 537 kts | 131° |
| 2026-04-30 08:47 | 22.01633 | 38.66948 | 34936 ft | 537 kts | 131° |
| 2026-04-30 08:47 | 21.97272 | 38.73470 | 34945 ft | 536 kts | 131° |
| 2026-04-30 08:48 | 21.92911 | 38.79983 | 34942 ft | 536 kts | 131° |
| 2026-04-30 08:48 | 21.88579 | 38.86447 | 34939 ft | 536 kts | 131° |
| 2026-04-30 08:49 | 21.84221 | 38.92940 | 34932 ft | 535 kts | 131° |
| 2026-04-30 08:49 | 21.79864 | 38.99426 | 34931 ft | 534 kts | 131° |
| 2026-04-30 08:50 | 21.75508 | 39.05896 | 34941 ft | 531 kts | 132° |
| 2026-04-30 08:50 | 21.73073 | 39.08731 | 34936 ft | 516 kts | 148° |
| 2026-04-30 08:50 | 21.70075 | 39.10697 | 34938 ft | 500 kts | 163° |
| 2026-04-30 08:50 | 21.66811 | 39.11863 | 34949 ft | 491 kts | 175° |
| 2026-04-30 08:51 | 21.63462 | 39.12298 | 34940 ft | 479 kts | 188° |
| 2026-04-30 08:51 | 21.56814 | 39.11999 | 34946 ft | 482 kts | 189° |
| 2026-04-30 08:52 | 21.50121 | 39.11766 | 34937 ft | 484 kts | 188° |
| 2026-04-30 08:52 | 21.43451 | 39.11597 | 34922 ft | 477 kts | 188° |
| 2026-04-30 08:53 | 21.36809 | 39.11435 | 34933 ft | 478 kts | 188° |
| 2026-04-30 08:53 | 21.30166 | 39.11270 | 34945 ft | 478 kts | 188° |
| 2026-04-30 08:54 | 21.23548 | 39.11104 | 34944 ft | 479 kts | 188° |
| 2026-04-30 08:54 | 21.16876 | 39.10938 | 34930 ft | 480 kts | 188° |
| 2026-04-30 08:55 | 21.10201 | 39.10773 | 34955 ft | 480 kts | 188° |
| 2026-04-30 08:55 | 21.03521 | 39.10608 | 34956 ft | 480 kts | 188° |
| 2026-04-30 08:56 | 20.96887 | 39.10443 | 34953 ft | 480 kts | 188° |
| 2026-04-30 08:56 | 20.90202 | 39.10278 | 34942 ft | 480 kts | 188° |
| 2026-04-30 08:57 | 20.83521 | 39.10113 | 34949 ft | 480 kts | 188° |
| 2026-04-30 08:57 | 20.76842 | 39.09947 | 34958 ft | 480 kts | 188° |
| 2026-04-30 08:58 | 20.70164 | 39.09782 | 34949 ft | 480 kts | 188° |
| 2026-04-30 08:58 | 20.63543 | 39.09615 | 34948 ft | 479 kts | 187° |
| 2026-04-30 08:59 | 20.56876 | 39.09444 | 34951 ft | 479 kts | 187° |
| 2026-04-30 08:59 | 20.50212 | 39.09274 | 34938 ft | 479 kts | 187° |
| 2026-04-30 09:00 | 20.43549 | 39.09104 | 34946 ft | 479 kts | 187° |
| 2026-04-30 09:00 | 20.36931 | 39.08936 | 34945 ft | 479 kts | 187° |
| 2026-04-30 09:01 | 20.30270 | 39.08766 | 34941 ft | 479 kts | 187° |
| 2026-04-30 09:01 | 20.23614 | 39.08597 | 34945 ft | 479 kts | 187° |
| 2026-04-30 09:02 | 20.13654 | 39.08344 | 34925 ft | 479 kts | 187° |
| 2026-04-30 09:02 | 20.06980 | 39.08175 | 34938 ft | 480 kts | 187° |
| 2026-04-30 09:03 | 20.00302 | 39.08007 | 34944 ft | 480 kts | 187° |
| 2026-04-30 09:03 | 19.93616 | 39.07837 | 34942 ft | 481 kts | 187° |
| 2026-04-30 09:04 | 19.86969 | 39.07669 | 34929 ft | 481 kts | 187° |
| 2026-04-30 09:04 | 19.80283 | 39.07501 | 34939 ft | 481 kts | 187° |
| 2026-04-30 09:05 | 19.73587 | 39.07332 | 34942 ft | 481 kts | 187° |
| 2026-04-30 09:05 | 19.66887 | 39.07163 | 34941 ft | 482 kts | 187° |
| 2026-04-30 09:06 | 19.60229 | 39.06996 | 34939 ft | 482 kts | 187° |
| 2026-04-30 09:06 | 19.53534 | 39.06827 | 34940 ft | 482 kts | 187° |
| 2026-04-30 09:07 | 19.46824 | 39.06659 | 34942 ft | 482 kts | 187° |
| 2026-04-30 09:07 | 19.40131 | 39.06491 | 34939 ft | 481 kts | 187° |
| 2026-04-30 09:08 | 19.33432 | 39.06322 | 34933 ft | 481 kts | 186° |
| 2026-04-30 09:08 | 19.26781 | 39.06156 | 34938 ft | 481 kts | 186° |
| 2026-04-30 09:09 | 19.20085 | 39.05988 | 34944 ft | 481 kts | 186° |
| 2026-04-30 09:09 | 19.13393 | 39.05820 | 34940 ft | 481 kts | 186° |
| 2026-04-30 09:10 | 19.06707 | 39.05539 | 34934 ft | 480 kts | 188° |
| 2026-04-30 09:10 | 19.00079 | 39.05138 | 34936 ft | 480 kts | 188° |
| 2026-04-30 09:11 | 18.93402 | 39.04738 | 34941 ft | 481 kts | 188° |
| 2026-04-30 09:11 | 18.86718 | 39.04360 | 34940 ft | 481 kts | 188° |
| 2026-04-30 09:12 | 18.80030 | 39.03990 | 34939 ft | 481 kts | 188° |
| 2026-04-30 09:12 | 18.73389 | 39.03624 | 34935 ft | 482 kts | 188° |
| 2026-04-30 09:13 | 18.66690 | 39.03253 | 34943 ft | 482 kts | 188° |
| 2026-04-30 09:13 | 18.59987 | 39.02883 | 34933 ft | 482 kts | 187° |
| 2026-04-30 09:14 | 18.53281 | 39.02512 | 34940 ft | 483 kts | 187° |
| 2026-04-30 09:14 | 18.46624 | 39.02144 | 34940 ft | 483 kts | 187° |
| 2026-04-30 09:15 | 18.39903 | 39.01773 | 34945 ft | 483 kts | 187° |
| 2026-04-30 09:15 | 18.33195 | 39.01403 | 34927 ft | 483 kts | 187° |
| 2026-04-30 09:16 | 18.26479 | 39.01033 | 34940 ft | 483 kts | 187° |
| 2026-04-30 09:16 | 18.19811 | 39.00666 | 34939 ft | 483 kts | 187° |
| 2026-04-30 09:17 | 18.13095 | 39.00328 | 34942 ft | 483 kts | 186° |
| 2026-04-30 09:17 | 18.06369 | 39.00092 | 34932 ft | 484 kts | 185° |
| 2026-04-30 09:18 | 17.99649 | 38.99868 | 34939 ft | 483 kts | 186° |
| 2026-04-30 09:18 | 17.92970 | 38.99632 | 34944 ft | 483 kts | 186° |
| 2026-04-30 09:19 | 17.86246 | 38.99386 | 34942 ft | 483 kts | 186° |
| 2026-04-30 09:19 | 17.79520 | 38.99139 | 34932 ft | 483 kts | 185° |
| 2026-04-30 09:20 | 17.72797 | 38.98894 | 34939 ft | 483 kts | 185° |
| 2026-04-30 09:20 | 17.66127 | 38.98652 | 34940 ft | 483 kts | 185° |
| 2026-04-30 09:21 | 17.59404 | 38.98407 | 34941 ft | 483 kts | 185° |
| 2026-04-30 09:21 | 17.52680 | 38.98162 | 34934 ft | 483 kts | 185° |
| 2026-04-30 09:22 | 17.45959 | 38.97919 | 34943 ft | 483 kts | 185° |
| 2026-04-30 09:22 | 17.39285 | 38.97676 | 34942 ft | 483 kts | 185° |
| 2026-04-30 09:23 | 17.32569 | 38.97433 | 34938 ft | 483 kts | 185° |
| 2026-04-30 09:23 | 17.25855 | 38.97189 | 34933 ft | 483 kts | 185° |
| 2026-04-30 09:24 | 17.19154 | 38.96946 | 34941 ft | 482 kts | 185° |
| 2026-04-30 09:24 | 17.12495 | 38.96705 | 34939 ft | 482 kts | 185° |
| 2026-04-30 09:25 | 17.05796 | 38.96463 | 34943 ft | 481 kts | 185° |
| 2026-04-30 09:25 | 16.99108 | 38.96220 | 34941 ft | 481 kts | 185° |
| 2026-04-30 09:26 | 16.92417 | 38.95979 | 34943 ft | 481 kts | 185° |
| 2026-04-30 09:26 | 16.85773 | 38.95739 | 34942 ft | 481 kts | 185° |
| 2026-04-30 09:27 | 16.79088 | 38.95497 | 34941 ft | 481 kts | 185° |
| 2026-04-30 09:27 | 16.72404 | 38.95256 | 34938 ft | 480 kts | 184° |
| 2026-04-30 09:28 | 16.65728 | 38.95015 | 34940 ft | 481 kts | 184° |
| 2026-04-30 09:28 | 16.59043 | 38.94774 | 34944 ft | 481 kts | 184° |
| 2026-04-30 09:29 | 16.52404 | 38.94536 | 34947 ft | 480 kts | 184° |
| 2026-04-30 09:29 | 16.45720 | 38.94295 | 34944 ft | 481 kts | 184° |
| 2026-04-30 09:30 | 16.39037 | 38.94055 | 34954 ft | 480 kts | 184° |
| 2026-04-30 09:30 | 16.32355 | 38.93815 | 34961 ft | 480 kts | 184° |
| 2026-04-30 09:31 | 16.25718 | 38.93576 | 34965 ft | 480 kts | 184° |
| 2026-04-30 09:31 | 16.19042 | 38.93337 | 34970 ft | 480 kts | 184° |
| 2026-04-30 09:32 | 16.12363 | 38.93097 | 34973 ft | 481 kts | 184° |
| 2026-04-30 09:32 | 16.05606 | 38.92854 | 35177 ft | 489 kts | 184° |
| 2026-04-30 09:33 | 16.02261 | 38.92734 | 35435 ft | 488 kts | 184° |
| 2026-04-30 09:33 | 15.98870 | 38.92614 | 35787 ft | 486 kts | 183° |
| 2026-04-30 09:33 | 15.95500 | 38.92493 | 36146 ft | 483 kts | 183° |
| 2026-04-30 09:33 | 15.92143 | 38.92373 | 36459 ft | 482 kts | 183° |
| 2026-04-30 09:34 | 15.88790 | 38.92253 | 36730 ft | 482 kts | 183° |
| 2026-04-30 09:34 | 15.85442 | 38.92134 | 37023 ft | 481 kts | 183° |
| 2026-04-30 09:34 | 15.82101 | 38.92015 | 37330 ft | 480 kts | 183° |
| 2026-04-30 09:34 | 15.78773 | 38.91896 | 37666 ft | 478 kts | 183° |
| 2026-04-30 09:35 | 15.75460 | 38.91778 | 37944 ft | 477 kts | 183° |
| 2026-04-30 09:35 | 15.72188 | 38.91661 | 38181 ft | 476 kts | 183° |
| 2026-04-30 09:35 | 15.68878 | 38.91542 | 38451 ft | 475 kts | 183° |
| 2026-04-30 09:35 | 15.65579 | 38.91425 | 38733 ft | 473 kts | 183° |
| 2026-04-30 09:36 | 15.62287 | 38.91307 | 38922 ft | 473 kts | 183° |
| 2026-04-30 09:36 | 15.58987 | 38.91190 | 38959 ft | 476 kts | 183° |
| 2026-04-30 09:36 | 15.52399 | 38.90954 | 39010 ft | 477 kts | 182° |
| 2026-04-30 09:37 | 15.45788 | 38.90719 | 39019 ft | 474 kts | 182° |
| 2026-04-30 09:37 | 15.39218 | 38.90485 | 39011 ft | 471 kts | 182° |
| 2026-04-30 09:38 | 15.32682 | 38.90253 | 39027 ft | 470 kts | 182° |
| 2026-04-30 09:38 | 15.26148 | 38.90041 | 39029 ft | 470 kts | 181° |
| 2026-04-30 09:39 | 15.19641 | 38.90027 | 39017 ft | 471 kts | 180° |
| 2026-04-30 09:39 | 15.13066 | 38.90063 | 39015 ft | 473 kts | 180° |
| 2026-04-30 09:40 | 15.06473 | 38.90073 | 38995 ft | 475 kts | 180° |
| 2026-04-30 09:40 | 14.99846 | 38.90067 | 39000 ft | 477 kts | 181° |
| 2026-04-30 09:41 | 14.93249 | 38.90056 | 38977 ft | 478 kts | 180° |
| 2026-04-30 09:41 | 14.86598 | 38.90047 | 38967 ft | 478 kts | 180° |
| 2026-04-30 09:42 | 14.79954 | 38.90038 | 38961 ft | 478 kts | 180° |
| 2026-04-30 09:42 | 14.73295 | 38.90030 | 38951 ft | 478 kts | 180° |
| 2026-04-30 09:43 | 14.66651 | 38.90021 | 38951 ft | 478 kts | 180° |
| 2026-04-30 09:43 | 14.60044 | 38.90013 | 38953 ft | 478 kts | 180° |
| 2026-04-30 09:44 | 14.53389 | 38.90004 | 38959 ft | 478 kts | 180° |
| 2026-04-30 09:44 | 14.46734 | 38.89982 | 38956 ft | 479 kts | 181° |
| 2026-04-30 09:45 | 14.40097 | 38.89905 | 38950 ft | 480 kts | 181° |
| 2026-04-30 09:45 | 14.33415 | 38.89821 | 38958 ft | 481 kts | 181° |
| 2026-04-30 09:46 | 14.26715 | 38.89746 | 38964 ft | 482 kts | 181° |
| 2026-04-30 09:46 | 14.20005 | 38.89674 | 38974 ft | 482 kts | 181° |
| 2026-04-30 09:47 | 14.13335 | 38.89601 | 38968 ft | 482 kts | 181° |
| 2026-04-30 09:47 | 14.06621 | 38.89529 | 38973 ft | 482 kts | 181° |
| 2026-04-30 09:48 | 13.99917 | 38.89442 | 38971 ft | 482 kts | 181° |
| 2026-04-30 09:48 | 13.93208 | 38.89316 | 38969 ft | 482 kts | 181° |
| 2026-04-30 09:49 | 13.86545 | 38.89188 | 38964 ft | 482 kts | 181° |
| 2026-04-30 09:49 | 13.79840 | 38.89064 | 38973 ft | 482 kts | 181° |
| 2026-04-30 09:50 | 13.73145 | 38.88943 | 38960 ft | 482 kts | 181° |
| 2026-04-30 09:50 | 13.66446 | 38.88823 | 38949 ft | 481 kts | 181° |
| 2026-04-30 09:51 | 13.59794 | 38.88703 | 38943 ft | 481 kts | 181° |
| 2026-04-30 09:51 | 13.53100 | 38.88583 | 38943 ft | 481 kts | 181° |
| 2026-04-30 09:52 | 13.46414 | 38.88462 | 38943 ft | 481 kts | 181° |
| 2026-04-30 09:52 | 13.39722 | 38.88342 | 38932 ft | 481 kts | 181° |
| 2026-04-30 09:53 | 13.33031 | 38.88222 | 38934 ft | 481 kts | 181° |
| 2026-04-30 09:53 | 13.26388 | 38.88102 | 38932 ft | 480 kts | 181° |
| 2026-04-30 09:54 | 13.19703 | 38.87982 | 38921 ft | 480 kts | 181° |
| 2026-04-30 09:54 | 13.13019 | 38.87862 | 38920 ft | 480 kts | 181° |
| 2026-04-30 09:55 | 13.06345 | 38.87743 | 38923 ft | 480 kts | 181° |
| 2026-04-30 09:55 | 12.99715 | 38.87624 | 38930 ft | 479 kts | 181° |
| 2026-04-30 09:56 | 12.93044 | 38.87504 | 38920 ft | 479 kts | 181° |
| 2026-04-30 09:56 | 12.86378 | 38.87344 | 38936 ft | 479 kts | 181° |
| 2026-04-30 09:57 | 12.79718 | 38.87152 | 38933 ft | 479 kts | 181° |
| 2026-04-30 09:57 | 12.73113 | 38.86964 | 38955 ft | 478 kts | 181° |
| 2026-04-30 09:58 | 12.66462 | 38.86782 | 38945 ft | 478 kts | 181° |
| 2026-04-30 09:58 | 12.59811 | 38.86602 | 38963 ft | 478 kts | 181° |
| 2026-04-30 09:59 | 12.46575 | 38.86242 | 38968 ft | 477 kts | 181° |
| 2026-04-30 10:00 | 12.36628 | 38.85972 | 38983 ft | 476 kts | 181° |
| 2026-04-30 10:01 | 12.26700 | 38.85701 | 38987 ft | 476 kts | 181° |
| 2026-04-30 10:02 | 12.16822 | 38.85426 | 38993 ft | 475 kts | 181° |
| 2026-04-30 10:02 | 12.10214 | 38.85242 | 38996 ft | 475 kts | 181° |
| 2026-04-30 10:03 | 12.03612 | 38.85058 | 38997 ft | 475 kts | 181° |
| 2026-04-30 10:03 | 11.97002 | 38.84875 | 39003 ft | 475 kts | 181° |
| 2026-04-30 10:04 | 11.90439 | 38.84692 | 39003 ft | 474 kts | 181° |
| 2026-04-30 10:04 | 11.83841 | 38.84510 | 38997 ft | 474 kts | 181° |
| 2026-04-30 10:05 | 11.77256 | 38.84327 | 38998 ft | 473 kts | 181° |
| 2026-04-30 10:05 | 11.70671 | 38.84144 | 38999 ft | 473 kts | 181° |
| 2026-04-30 10:06 | 11.64083 | 38.83962 | 38999 ft | 474 kts | 181° |
| 2026-04-30 10:06 | 11.57532 | 38.83780 | 38998 ft | 474 kts | 181° |
| 2026-04-30 10:07 | 11.50935 | 38.83597 | 38996 ft | 475 kts | 181° |
| 2026-04-30 10:07 | 11.44325 | 38.83415 | 38993 ft | 475 kts | 181° |
| 2026-04-30 10:08 | 11.37710 | 38.83233 | 38979 ft | 476 kts | 181° |
| 2026-04-30 10:08 | 11.31131 | 38.83052 | 38973 ft | 476 kts | 181° |
| 2026-04-30 10:09 | 11.24507 | 38.82871 | 38968 ft | 477 kts | 181° |
| 2026-04-30 10:09 | 11.17875 | 38.82689 | 38973 ft | 477 kts | 181° |
| 2026-04-30 10:10 | 11.11244 | 38.82507 | 38987 ft | 476 kts | 181° |
| 2026-04-30 10:10 | 11.04664 | 38.82328 | 38997 ft | 476 kts | 181° |
| 2026-04-30 10:11 | 10.98050 | 38.82146 | 38997 ft | 476 kts | 181° |
| 2026-04-30 10:11 | 10.91438 | 38.81965 | 39001 ft | 475 kts | 181° |
| 2026-04-30 10:12 | 10.84835 | 38.81784 | 38997 ft | 474 kts | 181° |
| 2026-04-30 10:12 | 10.78246 | 38.81604 | 38999 ft | 473 kts | 181° |
| 2026-04-30 10:13 | 10.71717 | 38.81425 | 38993 ft | 472 kts | 181° |
| 2026-04-30 10:13 | 10.65152 | 38.81243 | 38978 ft | 472 kts | 181° |
| 2026-04-30 10:14 | 10.58591 | 38.81062 | 38963 ft | 472 kts | 181° |
| 2026-04-30 10:14 | 10.48783 | 38.80792 | 38965 ft | 473 kts | 181° |
| 2026-04-30 10:15 | 10.42198 | 38.80610 | 38949 ft | 474 kts | 181° |
| 2026-04-30 10:15 | 10.35599 | 38.80429 | 38944 ft | 475 kts | 181° |
| 2026-04-30 10:16 | 10.28987 | 38.80247 | 38936 ft | 476 kts | 181° |
| 2026-04-30 10:17 | 10.19102 | 38.79975 | 38935 ft | 476 kts | 181° |
| 2026-04-30 10:17 | 10.09154 | 38.79702 | 38944 ft | 477 kts | 181° |
| 2026-04-30 10:18 | 10.02520 | 38.79518 | 38942 ft | 477 kts | 181° |
| 2026-04-30 10:19 | 9.92586 | 38.79246 | 38967 ft | 475 kts | 181° |
| 2026-04-30 10:19 | 9.86036 | 38.79067 | 38962 ft | 474 kts | 181° |
| 2026-04-30 10:20 | 9.79454 | 38.78886 | 38973 ft | 472 kts | 181° |
| 2026-04-30 10:20 | 9.69606 | 38.78616 | 38984 ft | 472 kts | 181° |
| 2026-04-30 10:21 | 9.63086 | 38.78437 | 39005 ft | 473 kts | 181° |
| 2026-04-30 10:21 | 9.56502 | 38.78256 | 39008 ft | 474 kts | 181° |
| 2026-04-30 10:22 | 9.49901 | 38.78076 | 39013 ft | 475 kts | 181° |
| 2026-04-30 10:22 | 9.43282 | 38.77894 | 39018 ft | 476 kts | 181° |
| 2026-04-30 10:23 | 9.36702 | 38.77714 | 39020 ft | 477 kts | 181° |
| 2026-04-30 10:23 | 9.30072 | 38.77533 | 39017 ft | 477 kts | 181° |
| 2026-04-30 10:24 | 9.23443 | 38.77351 | 39016 ft | 476 kts | 181° |
| 2026-04-30 10:24 | 9.16822 | 38.77170 | 39018 ft | 475 kts | 181° |
| 2026-04-30 10:25 | 9.13515 | 38.77077 | 39229 ft | 475 kts | 182° |
| 2026-04-30 10:25 | 9.10263 | 38.76805 | 39273 ft | 476 kts | 187° |
| 2026-04-30 10:25 | 9.03804 | 38.75387 | 39330 ft | 476 kts | 194° |
| 2026-04-30 10:26 | 8.97376 | 38.73716 | 39324 ft | 477 kts | 194° |
| 2026-04-30 10:26 | 8.90926 | 38.72066 | 39313 ft | 479 kts | 194° |
| 2026-04-30 10:27 | 8.84497 | 38.70447 | 39228 ft | 480 kts | 194° |
| 2026-04-30 10:27 | 8.78019 | 38.68825 | 39144 ft | 480 kts | 194° |
| 2026-04-30 10:28 | 8.71526 | 38.67199 | 39065 ft | 481 kts | 194° |
| 2026-04-30 10:28 | 8.65027 | 38.65571 | 38990 ft | 481 kts | 194° |
| 2026-04-30 10:29 | 8.58525 | 38.63942 | 38977 ft | 481 kts | 194° |
| 2026-04-30 10:29 | 8.52073 | 38.62326 | 38981 ft | 481 kts | 194° |
| 2026-04-30 10:30 | 8.45569 | 38.60697 | 38976 ft | 481 kts | 194° |
| 2026-04-30 10:30 | 8.39084 | 38.59074 | 38987 ft | 480 kts | 194° |
| 2026-04-30 10:31 | 8.32603 | 38.57453 | 38981 ft | 480 kts | 194° |
| 2026-04-30 10:31 | 8.26164 | 38.55842 | 38978 ft | 480 kts | 194° |
| 2026-04-30 10:32 | 8.19632 | 38.54507 | 38978 ft | 479 kts | 184° |
| 2026-04-30 10:32 | 8.12985 | 38.54733 | 38965 ft | 479 kts | 170° |
| 2026-04-30 10:33 | 8.06466 | 38.56082 | 38954 ft | 479 kts | 168° |
| 2026-04-30 10:33 | 7.99947 | 38.57502 | 38959 ft | 479 kts | 168° |
| 2026-04-30 10:34 | 7.93460 | 38.58881 | 38959 ft | 480 kts | 168° |
| 2026-04-30 10:34 | 7.86919 | 38.60243 | 38955 ft | 480 kts | 168° |
| 2026-04-30 10:35 | 7.80376 | 38.61595 | 38950 ft | 480 kts | 168° |
| 2026-04-30 10:35 | 7.73869 | 38.62939 | 38949 ft | 481 kts | 168° |
| 2026-04-30 10:36 | 7.67315 | 38.64293 | 38958 ft | 481 kts | 168° |
| 2026-04-30 10:36 | 7.60762 | 38.65649 | 38963 ft | 481 kts | 168° |
| 2026-04-30 10:37 | 7.54222 | 38.67001 | 38978 ft | 480 kts | 168° |
| 2026-04-30 10:37 | 7.47690 | 38.68351 | 38982 ft | 479 kts | 168° |
| 2026-04-30 10:38 | 7.41214 | 38.69689 | 38989 ft | 478 kts | 168° |
| 2026-04-30 10:38 | 7.34702 | 38.71033 | 39012 ft | 477 kts | 168° |
| 2026-04-30 10:39 | 7.28203 | 38.72375 | 39015 ft | 477 kts | 167° |
| 2026-04-30 10:39 | 7.21697 | 38.73718 | 39020 ft | 477 kts | 167° |
| 2026-04-30 10:40 | 7.15228 | 38.75053 | 39025 ft | 478 kts | 167° |
| 2026-04-30 10:40 | 7.08709 | 38.76398 | 39038 ft | 478 kts | 167° |
| 2026-04-30 10:41 | 7.02198 | 38.77740 | 39044 ft | 478 kts | 167° |
| 2026-04-30 10:41 | 6.95671 | 38.79086 | 39048 ft | 478 kts | 168° |
| 2026-04-30 10:42 | 6.89200 | 38.80420 | 39052 ft | 478 kts | 167° |
| 2026-04-30 10:42 | 6.82682 | 38.81763 | 39052 ft | 478 kts | 168° |
| 2026-04-30 10:43 | 6.76162 | 38.83106 | 39055 ft | 478 kts | 168° |
| 2026-04-30 10:43 | 6.69650 | 38.84447 | 39061 ft | 478 kts | 168° |
| 2026-04-30 10:44 | 6.63171 | 38.85781 | 39062 ft | 478 kts | 167° |
| 2026-04-30 10:44 | 6.56645 | 38.87124 | 39057 ft | 479 kts | 168° |
| 2026-04-30 10:45 | 6.50112 | 38.88469 | 39054 ft | 479 kts | 168° |
| 2026-04-30 10:45 | 6.43570 | 38.89815 | 39054 ft | 480 kts | 168° |
| 2026-04-30 10:46 | 6.37065 | 38.91153 | 39046 ft | 481 kts | 168° |
| 2026-04-30 10:46 | 6.30501 | 38.92502 | 39043 ft | 482 kts | 168° |
| 2026-04-30 10:47 | 6.23932 | 38.93852 | 39040 ft | 482 kts | 168° |
| 2026-04-30 10:47 | 6.17352 | 38.95204 | 39037 ft | 483 kts | 168° |
| 2026-04-30 10:48 | 6.10769 | 38.96557 | 39027 ft | 483 kts | 168° |
| 2026-04-30 10:48 | 6.04230 | 38.97900 | 39026 ft | 483 kts | 168° |
| 2026-04-30 10:49 | 5.97652 | 38.99251 | 39024 ft | 482 kts | 168° |
| 2026-04-30 10:49 | 5.91079 | 39.00600 | 39038 ft | 482 kts | 168° |
| 2026-04-30 10:50 | 5.84506 | 39.01949 | 39019 ft | 482 kts | 167° |
| 2026-04-30 10:50 | 5.77980 | 39.03288 | 39018 ft | 482 kts | 167° |
| 2026-04-30 10:51 | 5.71406 | 39.04638 | 39020 ft | 482 kts | 168° |
| 2026-04-30 10:51 | 5.64841 | 39.05984 | 39010 ft | 482 kts | 167° |
| 2026-04-30 10:52 | 5.58267 | 39.07332 | 39014 ft | 482 kts | 167° |
| 2026-04-30 10:52 | 5.51693 | 39.08680 | 39004 ft | 482 kts | 167° |
| 2026-04-30 10:53 | 5.45162 | 39.10018 | 39010 ft | 482 kts | 167° |
| 2026-04-30 10:53 | 5.38586 | 39.11365 | 38994 ft | 482 kts | 167° |
| 2026-04-30 10:54 | 5.32009 | 39.12713 | 38996 ft | 482 kts | 167° |
| 2026-04-30 10:54 | 5.25434 | 39.14060 | 38984 ft | 483 kts | 167° |
| 2026-04-30 10:55 | 5.18891 | 39.15400 | 38976 ft | 483 kts | 167° |
| 2026-04-30 10:55 | 5.12301 | 39.16749 | 38979 ft | 483 kts | 167° |
| 2026-04-30 10:56 | 5.05720 | 39.18096 | 38975 ft | 483 kts | 167° |
| 2026-04-30 10:56 | 4.99128 | 39.19445 | 38974 ft | 483 kts | 167° |
| 2026-04-30 10:57 | 4.92583 | 39.20784 | 38968 ft | 483 kts | 167° |
| 2026-04-30 10:57 | 4.85997 | 39.22132 | 38966 ft | 483 kts | 167° |
| 2026-04-30 10:58 | 4.79413 | 39.23478 | 38966 ft | 483 kts | 167° |
| 2026-04-30 10:58 | 4.72837 | 39.24823 | 38967 ft | 483 kts | 167° |
| 2026-04-30 10:59 | 4.66305 | 39.26159 | 38969 ft | 482 kts | 167° |
| 2026-04-30 10:59 | 4.59743 | 39.27500 | 38960 ft | 481 kts | 167° |
| 2026-04-30 11:00 | 4.53198 | 39.28837 | 38967 ft | 479 kts | 167° |
| 2026-04-30 11:00 | 4.46713 | 39.30163 | 38974 ft | 478 kts | 167° |
| 2026-04-30 11:01 | 4.40203 | 39.31493 | 38975 ft | 478 kts | 167° |
| 2026-04-30 11:01 | 4.33691 | 39.32823 | 38987 ft | 477 kts | 167° |
| 2026-04-30 11:02 | 4.27182 | 39.34153 | 38988 ft | 477 kts | 168° |
| 2026-04-30 11:02 | 4.20714 | 39.35473 | 38995 ft | 478 kts | 167° |
| 2026-04-30 11:03 | 4.14202 | 39.36803 | 38998 ft | 478 kts | 167° |
| 2026-04-30 11:04 | 4.04412 | 39.38801 | 39007 ft | 479 kts | 167° |
| 2026-04-30 11:04 | 3.97884 | 39.40133 | 39006 ft | 478 kts | 167° |
| 2026-04-30 11:05 | 3.91408 | 39.41454 | 39007 ft | 478 kts | 167° |
| 2026-04-30 11:05 | 3.84900 | 39.42782 | 39014 ft | 477 kts | 167° |
| 2026-04-30 11:06 | 3.78393 | 39.44110 | 39019 ft | 477 kts | 168° |
| 2026-04-30 11:06 | 3.71892 | 39.45436 | 39000 ft | 477 kts | 168° |
| 2026-04-30 11:07 | 3.65392 | 39.46761 | 39000 ft | 476 kts | 168° |
| 2026-04-30 11:07 | 3.58946 | 39.48075 | 39006 ft | 476 kts | 168° |
| 2026-04-30 11:08 | 3.52452 | 39.49399 | 38991 ft | 476 kts | 168° |
| 2026-04-30 11:08 | 3.45955 | 39.50723 | 38990 ft | 476 kts | 168° |
| 2026-04-30 11:09 | 3.39459 | 39.52047 | 38981 ft | 476 kts | 168° |
| 2026-04-30 11:09 | 3.33011 | 39.53361 | 38978 ft | 477 kts | 168° |
| 2026-04-30 11:10 | 3.26509 | 39.54685 | 38980 ft | 477 kts | 168° |
| 2026-04-30 11:10 | 3.20009 | 39.56010 | 38986 ft | 476 kts | 168° |
| 2026-04-30 11:11 | 3.13534 | 39.57329 | 38971 ft | 473 kts | 168° |
| 2026-04-30 11:11 | 3.07100 | 39.58639 | 38955 ft | 471 kts | 168° |
| 2026-04-30 11:12 | 3.00727 | 39.59937 | 38966 ft | 469 kts | 168° |
| 2026-04-30 11:12 | 2.94331 | 39.61239 | 38949 ft | 469 kts | 168° |
| 2026-04-30 11:13 | 2.87912 | 39.62546 | 38962 ft | 475 kts | 168° |
| 2026-04-30 11:13 | 2.81427 | 39.63866 | 38964 ft | 481 kts | 168° |
| 2026-04-30 11:14 | 2.74865 | 39.65202 | 38947 ft | 482 kts | 169° |
| 2026-04-30 11:14 | 2.68294 | 39.66539 | 38953 ft | 482 kts | 168° |
| 2026-04-30 11:15 | 2.61728 | 39.67875 | 38948 ft | 481 kts | 168° |
| 2026-04-30 11:15 | 2.55222 | 39.69199 | 38947 ft | 479 kts | 169° |
| 2026-04-30 11:16 | 2.48698 | 39.70527 | 38944 ft | 478 kts | 169° |
| 2026-04-30 11:16 | 2.42187 | 39.71851 | 38946 ft | 477 kts | 169° |
| 2026-04-30 11:17 | 2.35691 | 39.73173 | 38938 ft | 476 kts | 169° |
| 2026-04-30 11:17 | 2.29160 | 39.74501 | 38946 ft | 483 kts | 168° |
| 2026-04-30 11:18 | 2.22561 | 39.75843 | 38937 ft | 492 kts | 168° |
| 2026-04-30 11:18 | 2.12464 | 39.77896 | 38916 ft | 490 kts | 168° |
| 2026-04-30 11:19 | 2.05811 | 39.79249 | 38923 ft | 487 kts | 168° |
| 2026-04-30 11:19 | 2.00287 | 39.80372 | 38933 ft | 487 kts | 168° |
| 2026-04-30 11:20 | 1.92576 | 39.81941 | 38911 ft | 486 kts | 168° |
| 2026-04-30 11:20 | 1.85955 | 39.83286 | 38911 ft | 486 kts | 168° |
| 2026-04-30 11:21 | 1.80453 | 39.84405 | 38918 ft | 485 kts | 168° |
| 2026-04-30 11:21 | 1.72847 | 39.85950 | 38912 ft | 486 kts | 168° |
| 2026-04-30 11:22 | 1.66219 | 39.87297 | 38909 ft | 487 kts | 168° |
| 2026-04-30 11:22 | 1.59570 | 39.88649 | 38910 ft | 488 kts | 168° |
| 2026-04-30 11:23 | 1.52958 | 39.89992 | 38907 ft | 489 kts | 168° |
| 2026-04-30 11:24 | 1.42941 | 39.92027 | 38907 ft | 490 kts | 168° |
| 2026-04-30 11:24 | 1.36252 | 39.93387 | 38905 ft | 491 kts | 168° |
| 2026-04-30 11:25 | 1.26253 | 39.95418 | 38903 ft | 491 kts | 168° |
| 2026-04-30 11:26 | 1.12885 | 39.98134 | 38901 ft | 490 kts | 168° |
| 2026-04-30 11:26 | 1.06212 | 39.99489 | 38904 ft | 489 kts | 168° |
| 2026-04-30 11:27 | 0.99578 | 40.00752 | 38896 ft | 488 kts | 173° |
| 2026-04-30 11:27 | 0.92794 | 40.00992 | 38884 ft | 489 kts | 184° |
| 2026-04-30 11:28 | 0.82641 | 40.00035 | 38894 ft | 488 kts | 185° |
| 2026-04-30 11:29 | 0.75891 | 39.99390 | 38893 ft | 487 kts | 185° |
| 2026-04-30 11:29 | 0.65817 | 39.98477 | 38887 ft | 486 kts | 184° |
| 2026-04-30 11:30 | 0.55715 | 39.97576 | 38891 ft | 485 kts | 184° |
| 2026-04-30 11:31 | 0.48990 | 39.96975 | 38886 ft | 485 kts | 185° |
| 2026-04-30 11:31 | 0.42315 | 39.96376 | 38890 ft | 485 kts | 185° |
| 2026-04-30 11:32 | 0.35588 | 39.95774 | 38882 ft | 485 kts | 184° |
| 2026-04-30 11:32 | 0.28855 | 39.95170 | 38894 ft | 485 kts | 184° |
| 2026-04-30 11:33 | 0.18648 | 39.94257 | 38890 ft | 497 kts | 185° |
| 2026-04-30 11:33 | 0.11795 | 39.93643 | 38880 ft | 498 kts | 185° |
| 2026-04-30 11:34 | 0.04915 | 39.93026 | 38885 ft | 493 kts | 185° |
| 2026-04-30 11:34 | -0.01886 | 39.92415 | 38873 ft | 490 kts | 184° |
| 2026-04-30 11:35 | -0.08693 | 39.91806 | 38889 ft | 494 kts | 184° |
| 2026-04-30 11:35 | -0.15534 | 39.91194 | 38888 ft | 499 kts | 184° |
| 2026-04-30 11:36 | -0.22475 | 39.90572 | 38874 ft | 500 kts | 184° |
| 2026-04-30 11:36 | -0.29353 | 39.89955 | 38883 ft | 493 kts | 184° |
| 2026-04-30 11:37 | -0.36172 | 39.89388 | 38889 ft | 491 kts | 183° |
| 2026-04-30 11:37 | -0.42941 | 39.88956 | 38917 ft | 492 kts | 182° |
| 2026-04-30 11:38 | -0.49821 | 39.88535 | 38909 ft | 498 kts | 183° |
| 2026-04-30 11:38 | -0.56751 | 39.88091 | 38898 ft | 500 kts | 183° |
| 2026-04-30 11:39 | -0.63625 | 39.87639 | 38885 ft | 495 kts | 183° |
| 2026-04-30 11:39 | -0.70475 | 39.87187 | 38873 ft | 492 kts | 182° |
| 2026-04-30 11:40 | -0.77293 | 39.86738 | 38880 ft | 491 kts | 183° |
| 2026-04-30 11:40 | -0.82972 | 39.86365 | 38889 ft | 494 kts | 182° |
| 2026-04-30 11:41 | -0.89857 | 39.85914 | 38897 ft | 498 kts | 182° |
| 2026-04-30 11:41 | -0.97924 | 39.85384 | 38893 ft | 500 kts | 182° |
| 2026-04-30 11:42 | -1.04867 | 39.84927 | 38890 ft | 500 kts | 182° |
| 2026-04-30 11:42 | -1.10636 | 39.84548 | 38899 ft | 500 kts | 183° |
| 2026-04-30 11:43 | -1.17567 | 39.84092 | 38894 ft | 498 kts | 182° |
| 2026-04-30 11:43 | -1.25590 | 39.83565 | 38895 ft | 496 kts | 182° |
| 2026-04-30 11:44 | -1.31317 | 39.83189 | 38896 ft | 495 kts | 182° |
| 2026-04-30 11:44 | -1.38186 | 39.82737 | 38898 ft | 494 kts | 182° |
| 2026-04-30 11:45 | -1.45051 | 39.82286 | 38903 ft | 495 kts | 182° |
| 2026-04-30 11:45 | -1.53033 | 39.81761 | 38903 ft | 495 kts | 182° |
| 2026-04-30 11:46 | -1.58797 | 39.81383 | 38910 ft | 495 kts | 182° |
| 2026-04-30 11:46 | -1.65636 | 39.80933 | 38904 ft | 496 kts | 182° |
| 2026-04-30 11:47 | -1.72519 | 39.80480 | 38911 ft | 496 kts | 182° |
| 2026-04-30 11:47 | -1.79422 | 39.80026 | 38902 ft | 496 kts | 182° |
| 2026-04-30 11:48 | -1.86299 | 39.79547 | 38899 ft | 495 kts | 183° |
| 2026-04-30 11:48 | -1.93128 | 39.79061 | 38910 ft | 495 kts | 183° |
| 2026-04-30 11:49 | -1.99996 | 39.78574 | 38894 ft | 496 kts | 182° |
| 2026-04-30 11:49 | -2.06866 | 39.78090 | 38909 ft | 494 kts | 182° |
| 2026-04-30 11:50 | -2.13708 | 39.77608 | 38904 ft | 492 kts | 182° |
| 2026-04-30 11:50 | -2.20482 | 39.77131 | 38905 ft | 490 kts | 182° |
| 2026-04-30 11:51 | -2.27285 | 39.76653 | 38905 ft | 489 kts | 182° |
| 2026-04-30 11:51 | -2.34077 | 39.76174 | 38903 ft | 489 kts | 182° |
| 2026-04-30 11:52 | -2.40853 | 39.75697 | 38915 ft | 488 kts | 181° |
| 2026-04-30 11:52 | -2.47577 | 39.75223 | 38913 ft | 487 kts | 182° |
| 2026-04-30 11:53 | -2.54338 | 39.74747 | 38915 ft | 487 kts | 182° |
| 2026-04-30 11:53 | -2.61094 | 39.74271 | 38915 ft | 486 kts | 182° |
| 2026-04-30 11:54 | -2.67847 | 39.73781 | 38912 ft | 487 kts | 182° |
| 2026-04-30 11:54 | -2.74551 | 39.73279 | 38916 ft | 487 kts | 182° |
| 2026-04-30 11:55 | -2.81312 | 39.72771 | 38918 ft | 487 kts | 181° |
| 2026-04-30 11:55 | -2.88081 | 39.72266 | 38920 ft | 488 kts | 182° |
| 2026-04-30 11:56 | -2.94858 | 39.71761 | 38924 ft | 489 kts | 181° |
| 2026-04-30 11:56 | -3.01598 | 39.71259 | 38923 ft | 489 kts | 182° |
| 2026-04-30 11:57 | -3.08381 | 39.70754 | 38922 ft | 489 kts | 182° |
| 2026-04-30 11:57 | -3.15175 | 39.70247 | 38919 ft | 489 kts | 181° |
| 2026-04-30 11:58 | -3.21966 | 39.69741 | 38926 ft | 489 kts | 181° |
| 2026-04-30 11:58 | -3.28713 | 39.69238 | 38922 ft | 489 kts | 182° |
| 2026-04-30 11:59 | -3.35493 | 39.68733 | 38926 ft | 489 kts | 182° |
| 2026-04-30 11:59 | -3.42279 | 39.68227 | 38934 ft | 489 kts | 182° |
| 2026-04-30 12:00 | -3.49065 | 39.67721 | 38932 ft | 489 kts | 181° |
| 2026-04-30 12:00 | -3.55804 | 39.67218 | 38940 ft | 489 kts | 181° |
| 2026-04-30 12:01 | -3.62586 | 39.66712 | 38938 ft | 489 kts | 182° |
| 2026-04-30 12:01 | -3.69370 | 39.66206 | 38938 ft | 489 kts | 182° |
| 2026-04-30 12:02 | -3.76149 | 39.65700 | 38940 ft | 488 kts | 182° |
| 2026-04-30 12:02 | -3.82923 | 39.65194 | 38936 ft | 488 kts | 182° |
| 2026-04-30 12:03 | -3.93105 | 39.64435 | 37381 ft | 492 kts | 182° |
| 2026-04-30 12:03 | -3.96507 | 39.64064 | 36620 ft | 492 kts | 187° |
| 2026-04-30 12:04 | -3.99874 | 39.63457 | 35848 ft | 491 kts | 188° |
| 2026-04-30 12:04 | -4.03233 | 39.62806 | 34950 ft | 493 kts | 188° |
| 2026-04-30 12:04 | -4.06596 | 39.62143 | 34285 ft | 490 kts | 189° |
| 2026-04-30 12:04 | -4.09930 | 39.61489 | 33624 ft | 486 kts | 188° |
| 2026-04-30 12:05 | -4.13193 | 39.60858 | 32979 ft | 481 kts | 189° |
| 2026-04-30 12:05 | -4.16456 | 39.60235 | 32386 ft | 476 kts | 188° |
| 2026-04-30 12:05 | -4.19697 | 39.59622 | 31816 ft | 470 kts | 188° |
| 2026-04-30 12:05 | -4.22895 | 39.59020 | 31251 ft | 465 kts | 188° |
| 2026-04-30 12:06 | -4.26052 | 39.58426 | 30675 ft | 460 kts | 188° |
| 2026-04-30 12:06 | -4.29186 | 39.57837 | 30095 ft | 456 kts | 189° |
| 2026-04-30 12:06 | -4.32292 | 39.57252 | 29439 ft | 452 kts | 189° |
| 2026-04-30 12:06 | -4.35364 | 39.56673 | 28798 ft | 447 kts | 189° |
| 2026-04-30 12:07 | -4.38365 | 39.56108 | 28184 ft | 442 kts | 189° |
| 2026-04-30 12:07 | -4.41366 | 39.55541 | 27600 ft | 437 kts | 189° |
| 2026-04-30 12:07 | -4.44343 | 39.54980 | 27020 ft | 433 kts | 189° |
| 2026-04-30 12:07 | -4.47289 | 39.54424 | 26431 ft | 429 kts | 189° |
| 2026-04-30 12:08 | -4.50210 | 39.53873 | 25852 ft | 425 kts | 189° |
| 2026-04-30 12:08 | -4.53104 | 39.53327 | 25266 ft | 421 kts | 189° |
| 2026-04-30 12:08 | -4.55974 | 39.52786 | 24732 ft | 418 kts | 189° |
| 2026-04-30 12:08 | -4.58826 | 39.52248 | 24163 ft | 416 kts | 190° |
| 2026-04-30 12:09 | -4.61665 | 39.51712 | 23623 ft | 414 kts | 190° |
| 2026-04-30 12:09 | -4.64453 | 39.51186 | 23014 ft | 412 kts | 190° |
| 2026-04-30 12:09 | -4.67260 | 39.50656 | 22447 ft | 409 kts | 191° |
| 2026-04-30 12:09 | -4.70046 | 39.50130 | 21910 ft | 406 kts | 191° |
| 2026-04-30 12:10 | -4.72798 | 39.49572 | 21392 ft | 403 kts | 192° |
| 2026-04-30 12:10 | -4.75525 | 39.48968 | 20886 ft | 400 kts | 192° |
| 2026-04-30 12:10 | -4.78230 | 39.48352 | 20384 ft | 398 kts | 193° |
| 2026-04-30 12:10 | -4.80923 | 39.47737 | 19887 ft | 396 kts | 193° |
| 2026-04-30 12:11 | -4.83605 | 39.47127 | 19391 ft | 395 kts | 193° |
| 2026-04-30 12:11 | -4.86280 | 39.46522 | 18891 ft | 394 kts | 193° |
| 2026-04-30 12:11 | -4.88915 | 39.45930 | 18402 ft | 393 kts | 193° |
| 2026-04-30 12:11 | -4.91582 | 39.45332 | 17856 ft | 392 kts | 193° |
| 2026-04-30 12:12 | -4.94237 | 39.44738 | 17327 ft | 390 kts | 193° |
| 2026-04-30 12:12 | -4.96881 | 39.44147 | 16845 ft | 388 kts | 193° |
| 2026-04-30 12:12 | -4.99511 | 39.43559 | 16343 ft | 386 kts | 193° |
| 2026-04-30 12:12 | -5.02124 | 39.42975 | 15850 ft | 384 kts | 192° |
| 2026-04-30 12:13 | -5.04731 | 39.42393 | 15367 ft | 383 kts | 192° |
| 2026-04-30 12:13 | -5.07329 | 39.41813 | 14875 ft | 381 kts | 192° |
| 2026-04-30 12:13 | -5.09911 | 39.41236 | 14376 ft | 381 kts | 192° |
| 2026-04-30 12:13 | -5.12501 | 39.40658 | 13878 ft | 380 kts | 192° |
| 2026-04-30 12:14 | -5.15029 | 39.40093 | 13569 ft | 373 kts | 192° |
| 2026-04-30 12:14 | -5.17530 | 39.39534 | 13374 ft | 363 kts | 192° |
| 2026-04-30 12:14 | -5.19962 | 39.38990 | 13208 ft | 353 kts | 192° |
| 2026-04-30 12:14 | -5.22327 | 39.38461 | 13058 ft | 343 kts | 192° |
| 2026-04-30 12:15 | -5.24629 | 39.37946 | 12872 ft | 335 kts | 192° |
| 2026-04-30 12:15 | -5.26881 | 39.37443 | 12661 ft | 327 kts | 192° |
| 2026-04-30 12:15 | -5.29051 | 39.36959 | 12411 ft | 320 kts | 192° |
| 2026-04-30 12:15 | -5.31231 | 39.36472 | 12131 ft | 320 kts | 191° |
| 2026-04-30 12:16 | -5.33339 | 39.35999 | 11655 ft | 309 kts | 191° |
| 2026-04-30 12:16 | -5.35389 | 39.35540 | 11177 ft | 295 kts | 190° |
| 2026-04-30 12:16 | -5.37356 | 39.35099 | 10765 ft | 283 kts | 190° |
| 2026-04-30 12:16 | -5.39244 | 39.34677 | 10485 ft | 276 kts | 191° |
| 2026-04-30 12:17 | -5.42968 | 39.33846 | 9892 ft | 273 kts | 191° |
| 2026-04-30 12:17 | -5.44816 | 39.33433 | 9570 ft | 271 kts | 190° |
| 2026-04-30 12:17 | -5.46656 | 39.33022 | 9243 ft | 270 kts | 190° |
| 2026-04-30 12:18 | -5.48486 | 39.32613 | 8940 ft | 268 kts | 191° |
| 2026-04-30 12:18 | -5.50280 | 39.32212 | 8646 ft | 267 kts | 191° |
| 2026-04-30 12:18 | -5.52085 | 39.31808 | 8337 ft | 265 kts | 190° |
| 2026-04-30 12:18 | -5.53883 | 39.31406 | 8045 ft | 264 kts | 191° |
| 2026-04-30 12:19 | -5.55666 | 39.31007 | 7739 ft | 263 kts | 191° |
| 2026-04-30 12:19 | -5.57447 | 39.30609 | 7444 ft | 262 kts | 191° |
| 2026-04-30 12:19 | -5.59222 | 39.30211 | 7145 ft | 261 kts | 190° |
| 2026-04-30 12:19 | -5.60990 | 39.29816 | 6849 ft | 260 kts | 191° |
| 2026-04-30 12:20 | -5.62725 | 39.29428 | 6551 ft | 259 kts | 191° |
| 2026-04-30 12:20 | -5.64483 | 39.29035 | 6254 ft | 258 kts | 191° |
| 2026-04-30 12:20 | -5.66228 | 39.28644 | 5964 ft | 257 kts | 191° |
| 2026-04-30 12:20 | -5.67953 | 39.28258 | 5779 ft | 251 kts | 191° |
| 2026-04-30 12:21 | -5.69632 | 39.27881 | 5639 ft | 243 kts | 191° |
| 2026-04-30 12:21 | -5.71276 | 39.27513 | 5420 ft | 240 kts | 191° |
| 2026-04-30 12:21 | -5.72893 | 39.27151 | 5183 ft | 237 kts | 191° |
| 2026-04-30 12:21 | -5.74497 | 39.26792 | 4923 ft | 236 kts | 190° |
| 2026-04-30 12:22 | -5.76098 | 39.26434 | 4650 ft | 235 kts | 191° |
| 2026-04-30 12:22 | -5.77667 | 39.26083 | 4423 ft | 232 kts | 191° |
| 2026-04-30 12:22 | -5.79239 | 39.25731 | 4150 ft | 232 kts | 191° |
| 2026-04-30 12:22 | -5.80812 | 39.25379 | 3858 ft | 232 kts | 191° |
| 2026-04-30 12:23 | -5.82373 | 39.25030 | 3676 ft | 227 kts | 191° |
| 2026-04-30 12:23 | -5.83890 | 39.24689 | 3526 ft | 221 kts | 191° |
| 2026-04-30 12:23 | -5.85377 | 39.24357 | 3329 ft | 217 kts | 191° |
| 2026-04-30 12:23 | -5.86828 | 39.24032 | 3241 ft | 209 kts | 191° |
| 2026-04-30 12:24 | -5.88200 | 39.23723 | 3204 ft | 196 kts | 190° |
| 2026-04-30 12:24 | -5.89517 | 39.23428 | 3202 ft | 193 kts | 192° |
| 2026-04-30 12:24 | -5.90813 | 39.23139 | 3207 ft | 195 kts | 191° |
| 2026-04-30 12:24 | -5.92119 | 39.22846 | 3193 ft | 188 kts | 191° |
| 2026-04-30 12:25 | -5.93354 | 39.22569 | 3191 ft | 177 kts | 192° |
| 2026-04-30 12:25 | -5.94541 | 39.22303 | 3209 ft | 174 kts | 191° |
| 2026-04-30 12:25 | -5.95715 | 39.22040 | 3198 ft | 173 kts | 191° |
| 2026-04-30 12:25 | -5.96897 | 39.21775 | 3140 ft | 174 kts | 191° |
| 2026-04-30 12:26 | -5.98082 | 39.21510 | 3100 ft | 175 kts | 191° |
| 2026-04-30 12:26 | -5.99275 | 39.21244 | 3040 ft | 176 kts | 192° |
| 2026-04-30 12:26 | -6.00442 | 39.20983 | 2986 ft | 173 kts | 192° |
| 2026-04-30 12:26 | -6.01621 | 39.20718 | 2934 ft | 174 kts | 190° |
| 2026-04-30 12:27 | -6.02829 | 39.20637 | 2935 ft | 176 kts | 178° |
| 2026-04-30 12:27 | -6.04054 | 39.20701 | 2935 ft | 177 kts | 176° |
| 2026-04-30 12:27 | -6.05280 | 39.20802 | 2919 ft | 177 kts | 176° |
| 2026-04-30 12:27 | -6.06493 | 39.20917 | 2780 ft | 172 kts | 174° |
| 2026-04-30 12:28 | -6.07629 | 39.21029 | 2606 ft | 156 kts | 173° |
| 2026-04-30 12:28 | -6.08664 | 39.21134 | 2398 ft | 145 kts | 174° |
| 2026-04-30 12:28 | -6.09662 | 39.21233 | 2233 ft | 145 kts | 174° |
| 2026-04-30 12:28 | -6.10641 | 39.21331 | 2060 ft | 141 kts | 174° |
| 2026-04-30 12:29 | -6.11633 | 39.21430 | 1866 ft | 146 kts | 174° |
| 2026-04-30 12:29 | -6.12641 | 39.21532 | 1677 ft | 145 kts | 171° |
| 2026-04-30 12:29 | -6.13629 | 39.21632 | 1473 ft | 139 kts | 173° |
| 2026-04-30 12:29 | -6.14567 | 39.21725 | 1300 ft | 134 kts | 174° |
| 2026-04-30 12:30 | -6.15511 | 39.21820 | 1144 ft | 139 kts | 173° |
| 2026-04-30 12:30 | -6.16488 | 39.21917 | 959 ft | 140 kts | 173° |
| 2026-04-30 12:30 | -6.17437 | 39.22011 | 764 ft | 136 kts | 173° |
| 2026-04-30 12:30 | -6.18379 | 39.22106 | 606 ft | 138 kts | 174° |
| 2026-04-30 12:31 | -6.19333 | 39.22201 | 459 ft | 144 kts | 174° |
| 2026-04-30 12:31 | -6.20365 | 39.22306 | 254 ft | 150 kts | 172° |
| 2026-04-30 12:31 | -6.21367 | 39.22410 | 67 ft | 138 kts | 174° |
| 2026-04-30 12:31 | -6.22228 | 39.22501 | 60 ft | 108 kts | 174° |
| 2026-04-30 12:32 | -6.22852 | 39.22557 | 61 ft | 72 kts | 174° |
| 2026-04-30 12:32 | -6.23231 | 39.22594 | 63 ft | 36 kts | 174° |
| 2026-04-30 12:32 | -6.23461 | 39.22618 | 57 ft | 31 kts | 174° |
| 2026-04-30 12:32 | -6.23667 | 39.22640 | 55 ft | 24 kts | 174° |
| 2026-04-30 12:33 | -6.23781 | 39.22643 | 53 ft | 12 kts | 207° |
| 2026-04-30 12:33 | -6.23806 | 39.22577 | 51 ft | 10 kts | 262° |
| 2026-04-30 12:33 | -6.23809 | 39.22507 | 56 ft | 10 kts | 285° |
| 2026-04-30 12:33 | -6.23750 | 39.22474 | 55 ft | 10 kts | 350° |
| 2026-04-30 12:34 | -6.23678 | 39.22464 | 55 ft | 10 kts | 355° |
| 2026-04-30 12:34 | -6.23604 | 39.22457 | 54 ft | 11 kts | 353° |
| 2026-04-30 12:34 | -6.23529 | 39.22449 | 53 ft | 11 kts | 354° |
| 2026-04-30 12:34 | -6.23454 | 39.22442 | 53 ft | 11 kts | 354° |
| 2026-04-30 12:35 | -6.23379 | 39.22434 | 56 ft | 11 kts | 354° |
| 2026-04-30 12:35 | -6.23272 | 39.22423 | 61 ft | 22 kts | 354° |
| 2026-04-30 12:35 | -6.23119 | 39.22408 | 59 ft | 22 kts | 354° |
| 2026-04-30 12:35 | -6.22964 | 39.22393 | 54 ft | 22 kts | 354° |
| 2026-04-30 12:36 | -6.22810 | 39.22379 | 59 ft | 22 kts | 355° |
| 2026-04-30 12:36 | -6.22658 | 39.22366 | 59 ft | 22 kts | 354° |
| 2026-04-30 12:36 | -6.22527 | 39.22352 | 57 ft | 13 kts | 354° |
| 2026-04-30 12:36 | -6.22453 | 39.22336 | 55 ft | 10 kts | 327° |
| 2026-04-30 12:37 | -6.22435 | 39.22289 | 59 ft | 1 kts | 271° |
| 2026-04-30 12:37 | -6.22432 | 39.22271 | 59 ft | 5 kts | 292° |
| 2026-04-30 12:37 | -6.22395 | 39.22257 | 59 ft | 6 kts | 348° |
| 2026-04-30 12:37 | -6.22357 | 39.22253 | 58 ft | 4 kts | 355° |
| 2026-04-30 12:38 | -6.22339 | 39.22251 | 63 ft | 1 kts | 355° |
| 2026-04-30 12:38 | -6.22338 | 39.22251 | 63 ft | 0 kts | 355° |
| 2026-04-30 12:38 | -6.22335 | 39.22251 | 60 ft | 1 kts | 355° |
| 2026-04-30 12:38 | -6.22333 | 39.22250 | 60 ft | 0 kts | 355° |